Wetterdaten: Dienstag, 12.03.2019
Datum Zeit Temp. Aussen Temp. o. S. +5cm Feuchte Auss Luftdruck Regen Sonnenschein Regendauer Solar Windben Empfang
12.03.2019 00:00 3,3 C 2,8 C 1,7 C 86 % 1023,2 hPa 0,0 l/m 0 min 0 min 0 W/m 9,7 km/h (2 Bft) 100,00 %
12.03.2019 00:02 3,3 C 2,2 C 1,7 C 86 % 1023,3 hPa 0,0 l/m 0 min 0 min 0 W/m 6,4 km/h (2 Bft) 97,50 %
12.03.2019 00:04 3,3 C 2,2 C 1,7 C 86 % 1023,2 hPa 0,0 l/m 0 min 0 min 0 W/m 9,7 km/h (2 Bft) 100,00 %
12.03.2019 00:07 3,3 C 2,2 C 1,7 C 86 % 1023,1 hPa 0,0 l/m 0 min 0 min 0 W/m 6,4 km/h (2 Bft) 100,00 %
12.03.2019 00:08 3,2 C 2,2 C 1,7 C 86 % 1023,1 hPa 0,0 l/m 0 min 0 min 0 W/m 6,4 km/h (2 Bft) 100,00 %
12.03.2019 00:10 3,2 C 2,2 C 1,7 C 86 % 1023,2 hPa 0,0 l/m 0 min 0 min 0 W/m 9,7 km/h (2 Bft) 100,00 %
12.03.2019 00:12 3,2 C 2,2 C 1,7 C 86 % 1023,1 hPa 0,0 l/m 0 min 0 min 0 W/m 9,7 km/h (2 Bft) 100,00 %
12.03.2019 00:14 3,2 C 2,2 C 1,7 C 86 % 1023,0 hPa 0,0 l/m 0 min 0 min 0 W/m 6,4 km/h (2 Bft) 100,00 %
12.03.2019 00:16 3,2 C 2,2 C 1,7 C 86 % 1023,0 hPa 0,0 l/m 0 min 0 min 0 W/m 6,4 km/h (2 Bft) 100,00 %
12.03.2019 00:18 3,2 C 2,2 C 1,7 C 86 % 1023,0 hPa 0,0 l/m 0 min 0 min 0 W/m 6,4 km/h (2 Bft) 100,00 %
12.03.2019 00:20 3,1 C 2,2 C 1,7 C 86 % 1022,8 hPa 0,0 l/m 0 min 0 min 0 W/m 6,4 km/h (2 Bft) 100,00 %
12.03.2019 00:22 3,1 C 2,2 C 1,7 C 86 % 1022,8 hPa 0,0 l/m 0 min 0 min 0 W/m 3,2 km/h (1 Bft) 100,00 %
12.03.2019 00:24 3,1 C 2,2 C 1,7 C 86 % 1022,8 hPa 0,0 l/m 0 min 0 min 0 W/m 6,4 km/h (2 Bft) 97,87 %
12.03.2019 00:26 3,1 C 2,2 C 1,7 C 86 % 1022,7 hPa 0,0 l/m 0 min 0 min 0 W/m 6,4 km/h (2 Bft) 97,87 %
12.03.2019 00:28 3,1 C 2,2 C 1,7 C 86 % 1022,6 hPa 0,0 l/m 0 min 0 min 0 W/m 3,2 km/h (1 Bft) 97,87 %
12.03.2019 00:30 3,1 C 2,2 C 1,1 C 86 % 1022,7 hPa 0,0 l/m 0 min 0 min 0 W/m 3,2 km/h (1 Bft) 97,83 %
12.03.2019 00:32 3,0 C 1,7 C 1,1 C 86 % 1022,7 hPa 0,0 l/m 0 min 0 min 0 W/m 3,2 km/h (1 Bft) 100,00 %
12.03.2019 00:34 3,0 C 1,7 C 1,1 C 86 % 1022,6 hPa 0,0 l/m 0 min 0 min 0 W/m 3,2 km/h (1 Bft) 100,00 %
12.03.2019 00:36 2,9 C 1,7 C 1,1 C 86 % 1022,6 hPa 0,0 l/m 0 min 0 min 0 W/m 0,0 km/h (0 Bft) 97,87 %
12.03.2019 00:38 2,9 C 1,7 C 0,6 C 86 % 1022,7 hPa 0,0 l/m 0 min 0 min 0 W/m 0,0 km/h (0 Bft) 97,87 %
12.03.2019 00:40 2,9 C 1,7 C 0,6 C 86 % 1022,7 hPa 0,0 l/m 0 min 0 min 0 W/m 9,7 km/h (2 Bft) 97,87 %
12.03.2019 00:42 2,9 C 1,7 C 0,6 C 86 % 1022,7 hPa 0,0 l/m 0 min 0 min 0 W/m 6,4 km/h (2 Bft) 97,83 %
12.03.2019 00:44 2,9 C 1,7 C 0,6 C 87 % 1022,7 hPa 0,0 l/m 0 min 0 min 0 W/m 3,2 km/h (1 Bft) 97,87 %
12.03.2019 00:46 2,9 C 1,7 C 0,6 C 87 % 1022,7 hPa 0,0 l/m 0 min 0 min 0 W/m 3,2 km/h (1 Bft) 97,87 %
12.03.2019 00:48 2,8 C 1,7 C 0,6 C 87 % 1022,6 hPa 0,0 l/m 0 min 0 min 0 W/m 3,2 km/h (1 Bft) 97,87 %
12.03.2019 00:50 2,8 C 1,7 C 0,6 C 87 % 1022,6 hPa 0,0 l/m 0 min 0 min 0 W/m 0,0 km/h (0 Bft) 95,74 %
12.03.2019 00:52 2,7 C 1,1 C 0,6 C 87 % 1022,6 hPa 0,0 l/m 0 min 0 min 0 W/m 0,0 km/h (0 Bft) 97,87 %
12.03.2019 00:54 2,7 C 1,7 C 0,6 C 87 % 1022,7 hPa 0,0 l/m 0 min 0 min 0 W/m 3,2 km/h (1 Bft) 97,83 %
12.03.2019 00:56 2,7 C 1,7 C 1,1 C 87 % 1022,7 hPa 0,0 l/m 0 min 0 min 0 W/m 3,2 km/h (1 Bft) 95,74 %
12.03.2019 00:58 2,7 C 1,7 C 1,1 C 87 % 1022,6 hPa 0,0 l/m 0 min 0 min 0 W/m 3,2 km/h (1 Bft) 97,87 %
12.03.2019 01:00 2,7 C 1,7 C 1,1 C 87 % 1022,6 hPa 0,0 l/m 0 min 0 min 0 W/m 6,4 km/h (2 Bft) 97,87 %
12.03.2019 01:02 2,6 C 1,7 C 1,1 C 87 % 1022,6 hPa 0,0 l/m 0 min 0 min 0 W/m 0,0 km/h (0 Bft) 97,87 %
12.03.2019 01:04 2,6 C 1,7 C 1,1 C 87 % 1022,6 hPa 0,0 l/m 0 min 0 min 0 W/m 0,0 km/h (0 Bft) 97,87 %
12.03.2019 01:06 2,6 C 1,7 C 1,1 C 87 % 1022,6 hPa 0,0 l/m 0 min 0 min 0 W/m 0,0 km/h (0 Bft) 100,00 %
12.03.2019 01:08 2,6 C 1,7 C 1,7 C 88 % 1022,6 hPa 0,0 l/m 0 min 0 min 0 W/m 0,0 km/h (0 Bft) 97,87 %
12.03.2019 01:10 2,6 C 2,2 C 1,7 C 88 % 1022,7 hPa 0,0 l/m 0 min 0 min 0 W/m 0,0 km/h (0 Bft) 97,87 %
12.03.2019 01:12 2,6 C 2,2 C 1,7 C 88 % 1022,8 hPa 0,0 l/m 0 min 0 min 0 W/m 0,0 km/h (0 Bft) 97,87 %
12.03.2019 01:14 2,6 C 2,2 C 1,7 C 88 % 1022,7 hPa 0,0 l/m 0 min 0 min 0 W/m 0,0 km/h (0 Bft) 100,00 %
12.03.2019 01:16 2,6 C 2,2 C 1,7 C 88 % 1022,5 hPa 0,0 l/m 0 min 0 min 0 W/m 0,0 km/h (0 Bft) 100,00 %
12.03.2019 01:18 2,6 C 1,7 C 1,7 C 88 % 1022,4 hPa 0,0 l/m 0 min 0 min 0 W/m 0,0 km/h (0 Bft) 100,00 %
12.03.2019 01:20 2,6 C 2,2 C 1,7 C 88 % 1022,5 hPa 0,0 l/m 0 min 0 min 0 W/m 0,0 km/h (0 Bft) 100,00 %
12.03.2019 01:22 2,5 C 2,2 C 1,7 C 89 % 1022,5 hPa 0,0 l/m 0 min 0 min 0 W/m 0,0 km/h (0 Bft) 100,00 %
12.03.2019 01:24 2,5 C 2,2 C 1,7 C 89 % 1022,4 hPa 0,0 l/m 0 min 0 min 0 W/m 9,7 km/h (2 Bft) 100,00 %
12.03.2019 01:26 2,5 C 2,2 C 1,7 C 89 % 1022,4 hPa 0,0 l/m 0 min 0 min 0 W/m 3,2 km/h (1 Bft) 97,87 %
12.03.2019 01:28 2,5 C 2,2 C 1,7 C 89 % 1022,4 hPa 0,0 l/m 0 min 0 min 0 W/m 6,4 km/h (2 Bft) 97,83 %
12.03.2019 01:30 2,6 C 1,7 C 1,7 C 89 % 1022,4 hPa 0,0 l/m 0 min 0 min 0 W/m 3,2 km/h (1 Bft) 95,74 %
12.03.2019 01:32 2,5 C 1,7 C 1,1 C 89 % 1022,2 hPa 0,0 l/m 0 min 0 min 0 W/m 6,4 km/h (2 Bft) 97,87 %
12.03.2019 01:34 2,5 C 1,7 C 1,1 C 89 % 1022,3 hPa 0,0 l/m 0 min 0 min 0 W/m 6,4 km/h (2 Bft) 97,87 %
12.03.2019 01:36 2,5 C 1,7 C 1,1 C 89 % 1022,4 hPa 0,0 l/m 0 min 0 min 0 W/m 6,4 km/h (2 Bft) 97,87 %
12.03.2019 01:38 2,5 C 1,7 C 1,1 C 89 % 1022,3 hPa 0,0 l/m 0 min 0 min 0 W/m 3,2 km/h (1 Bft) 97,87 %
12.03.2019 01:40 2,5 C 1,7 C 1,1 C 89 % 1022,3 hPa 0,0 l/m 0 min 0 min 0 W/m 6,4 km/h (2 Bft) 97,83 %
12.03.2019 01:42 2,5 C 1,7 C 1,1 C 89 % 1022,4 hPa 0,0 l/m 0 min 0 min 0 W/m 6,4 km/h (2 Bft) 95,74 %
12.03.2019 01:44 2,5 C 1,7 C 1,1 C 89 % 1022,5 hPa 0,0 l/m 0 min 0 min 0 W/m 6,4 km/h (2 Bft) 97,87 %
12.03.2019 01:46 2,4 C 1,7 C 1,1 C 89 % 1022,5 hPa 0,0 l/m 0 min 0 min 0 W/m 6,4 km/h (2 Bft) 97,87 %
12.03.2019 01:48 2,4 C 1,7 C 1,1 C 89 % 1022,5 hPa 0,0 l/m 0 min 0 min 0 W/m 9,7 km/h (2 Bft) 97,87 %
12.03.2019 01:50 2,4 C 1,7 C 1,1 C 89 % 1022,4 hPa 0,0 l/m 0 min 0 min 0 W/m 6,4 km/h (2 Bft) 95,74 %
12.03.2019 01:52 2,4 C 2,2 C 1,1 C 89 % 1022,4 hPa 0,0 l/m 0 min 0 min 0 W/m 6,4 km/h (2 Bft) 97,83 %
12.03.2019 01:54 2,4 C 1,7 C 1,1 C 89 % 1022,4 hPa 0,0 l/m 0 min 0 min 0 W/m 9,7 km/h (2 Bft) 97,87 %
12.03.2019 01:56 2,4 C 1,7 C 1,1 C 89 % 1022,4 hPa 0,0 l/m 0 min 0 min 0 W/m 6,4 km/h (2 Bft) 97,87 %
12.03.2019 01:58 2,4 C 1,7 C 1,1 C 89 % 1022,4 hPa 0,0 l/m 0 min 0 min 0 W/m 6,4 km/h (2 Bft) 97,87 %
12.03.2019 02:00 2,4 C 1,7 C 1,1 C 89 % 1022,4 hPa 0,0 l/m 0 min 0 min 0 W/m 9,7 km/h (2 Bft) 97,87 %
12.03.2019 02:02 2,4 C 1,7 C 1,1 C 89 % 1022,4 hPa 0,0 l/m 0 min 0 min 0 W/m 6,4 km/h (2 Bft) 97,87 %
12.03.2019 02:04 2,4 C 1,7 C 1,1 C 89 % 1022,3 hPa 0,0 l/m 0 min 0 min 0 W/m 0,0 km/h (0 Bft) 97,83 %
12.03.2019 02:06 2,4 C 1,7 C 1,1 C 89 % 1022,2 hPa 0,0 l/m 0 min 0 min 0 W/m 9,7 km/h (2 Bft) 97,87 %
12.03.2019 02:08 2,4 C 2,2 C 1,7 C 89 % 1022,2 hPa 0,0 l/m 0 min 0 min 0 W/m 6,4 km/h (2 Bft) 93,62 %
12.03.2019 02:10 2,4 C 2,2 C 1,7 C 89 % 1022,2 hPa 0,0 l/m 0 min 0 min 0 W/m 9,7 km/h (2 Bft) 97,87 %
12.03.2019 02:12 2,4 C 2,2 C 1,7 C 89 % 1022,4 hPa 0,0 l/m 0 min 0 min 0 W/m 9,7 km/h (2 Bft) 97,87 %
12.03.2019 02:14 2,4 C 2,2 C 1,7 C 89 % 1022,2 hPa 0,0 l/m 0 min 0 min 0 W/m 9,7 km/h (2 Bft) 95,74 %
12.03.2019 02:16 2,4 C 2,2 C 1,7 C 89 % 1022,3 hPa 0,0 l/m 0 min 0 min 0 W/m 6,4 km/h (2 Bft) 97,83 %
12.03.2019 02:18 2,4 C 2,2 C 1,7 C 90 % 1022,3 hPa 0,0 l/m 0 min 0 min 0 W/m 9,7 km/h (2 Bft) 97,87 %
12.03.2019 02:20 2,4 C 2,2 C 1,7 C 90 % 1022,3 hPa 0,0 l/m 0 min 0 min 0 W/m 12,9 km/h (3 Bft) 100,00 %
12.03.2019 02:22 2,4 C 2,2 C 1,7 C 90 % 1022,2 hPa 0,0 l/m 0 min 0 min 0 W/m 9,7 km/h (2 Bft) 100,00 %
12.03.2019 02:24 2,4 C 2,2 C 1,7 C 90 % 1022,1 hPa 0,0 l/m 0 min 0 min 0 W/m 6,4 km/h (2 Bft) 97,87 %
12.03.2019 02:26 2,4 C 2,2 C 1,7 C 90 % 1022,1 hPa 0,0 l/m 0 min 0 min 0 W/m 12,9 km/h (3 Bft) 100,00 %
12.03.2019 02:28 2,4 C 2,2 C 1,7 C 90 % 1022,1 hPa 0,0 l/m 0 min 0 min 0 W/m 9,7 km/h (2 Bft) 97,87 %
12.03.2019 02:30 2,5 C 2,2 C 1,7 C 90 % 1022,1 hPa 0,0 l/m 0 min 0 min 0 W/m 9,7 km/h (2 Bft) 97,87 %
12.03.2019 02:32 2,5 C 2,2 C 1,7 C 90 % 1022,0 hPa 0,0 l/m 0 min 0 min 0 W/m 6,4 km/h (2 Bft) 95,74 %
12.03.2019 02:34 2,5 C 2,2 C 1,7 C 90 % 1022,0 hPa 0,0 l/m 0 min 0 min 0 W/m 9,7 km/h (2 Bft) 93,62 %
12.03.2019 02:36 2,5 C 2,2 C 1,7 C 90 % 1022,0 hPa 0,0 l/m 0 min 0 min 0 W/m 9,7 km/h (2 Bft) 95,74 %
12.03.2019 02:38 2,5 C 2,2 C 1,7 C 90 % 1022,0 hPa 0,0 l/m 0 min 0 min 0 W/m 6,4 km/h (2 Bft) 95,65 %
12.03.2019 02:40 2,6 C 2,2 C 1,7 C 90 % 1022,0 hPa 0,0 l/m 0 min 0 min 0 W/m 6,4 km/h (2 Bft) 95,74 %
12.03.2019 02:42 2,6 C 2,2 C 1,7 C 90 % 1022,0 hPa 0,0 l/m 0 min 0 min 0 W/m 9,7 km/h (2 Bft) 93,62 %
12.03.2019 02:44 2,6 C 2,2 C 1,7 C 90 % 1022,0 hPa 0,0 l/m 0 min 0 min 0 W/m 6,4 km/h (2 Bft) 93,62 %
12.03.2019 02:46 2,5 C 2,2 C 1,7 C 89 % 1021,9 hPa 0,0 l/m 0 min 0 min 0 W/m 9,7 km/h (2 Bft) 95,74 %
12.03.2019 02:48 2,6 C 2,2 C 1,7 C 89 % 1021,9 hPa 0,0 l/m 0 min 0 min 0 W/m 12,9 km/h (3 Bft) 95,74 %
12.03.2019 02:50 2,5 C 2,2 C 1,1 C 89 % 1021,9 hPa 0,0 l/m 0 min 0 min 0 W/m 6,4 km/h (2 Bft) 95,65 %
12.03.2019 02:52 2,6 C 2,2 C 1,1 C 89 % 1021,9 hPa 0,0 l/m 0 min 0 min 0 W/m 6,4 km/h (2 Bft) 95,74 %
12.03.2019 02:54 2,5 C 2,2 C 1,7 C 89 % 1021,8 hPa 0,0 l/m 0 min 0 min 0 W/m 9,7 km/h (2 Bft) 97,87 %
12.03.2019 02:56 2,5 C 2,2 C 1,1 C 89 % 1021,8 hPa 0,0 l/m 0 min 0 min 0 W/m 12,9 km/h (3 Bft) 95,74 %
12.03.2019 02:58 2,5 C 2,2 C 1,1 C 89 % 1021,9 hPa 0,0 l/m 0 min 0 min 0 W/m 9,7 km/h (2 Bft) 95,74 %
12.03.2019 03:00 2,5 C 1,7 C 1,1 C 89 % 1021,8 hPa 0,0 l/m 0 min 0 min 0 W/m 6,4 km/h (2 Bft) 95,74 %
12.03.2019 03:02 2,5 C 1,7 C 1,1 C 89 % 1021,8 hPa 0,0 l/m 0 min 0 min 0 W/m 6,4 km/h (2 Bft) 95,65 %
12.03.2019 03:04 2,5 C 1,7 C 1,1 C 89 % 1021,7 hPa 0,0 l/m 0 min 0 min 0 W/m 9,7 km/h (2 Bft) 95,74 %
12.03.2019 03:06 2,4 C 1,7 C 1,1 C 89 % 1021,6 hPa 0,0 l/m 0 min 0 min 0 W/m 9,7 km/h (2 Bft) 93,62 %
12.03.2019 03:08 2,4 C 1,7 C 1,1 C 89 % 1021,7 hPa 0,0 l/m 0 min 0 min 0 W/m 6,4 km/h (2 Bft) 95,74 %
12.03.2019 03:10 2,4 C 1,7 C 1,1 C 89 % 1021,7 hPa 0,0 l/m 0 min 0 min 0 W/m 9,7 km/h (2 Bft) 95,74 %
12.03.2019 03:12 2,4 C 1,7 C 1,1 C 89 % 1021,6 hPa 0,0 l/m 0 min 0 min 0 W/m 6,4 km/h (2 Bft) 93,62 %
12.03.2019 03:14 2,4 C 1,7 C 1,1 C 89 % 1021,6 hPa 0,0 l/m 0 min 0 min 0 W/m 9,7 km/h (2 Bft) 95,65 %
12.03.2019 03:16 2,4 C 2,2 C 1,1 C 89 % 1021,6 hPa 0,0 l/m 0 min 0 min 0 W/m 12,9 km/h (3 Bft) 95,74 %
12.03.2019 03:18 2,4 C 2,2 C 1,1 C 89 % 1021,5 hPa 0,0 l/m 0 min 0 min 0 W/m 9,7 km/h (2 Bft) 95,74 %
12.03.2019 03:20 2,4 C 2,2 C 1,1 C 89 % 1021,4 hPa 0,0 l/m 0 min 0 min 0 W/m 16,1 km/h (3 Bft) 97,87 %
12.03.2019 03:22 2,4 C 2,2 C 1,7 C 89 % 1021,3 hPa 0,0 l/m 0 min 0 min 0 W/m 12,9 km/h (3 Bft) 97,87 %
12.03.2019 03:24 2,4 C 2,2 C 1,7 C 89 % 1021,3 hPa 0,0 l/m 0 min 0 min 0 W/m 9,7 km/h (2 Bft) 97,87 %
12.03.2019 03:26 2,4 C 2,2 C 1,7 C 89 % 1021,2 hPa 0,0 l/m 0 min 0 min 0 W/m 16,1 km/h (3 Bft) 97,83 %
12.03.2019 03:28 2,4 C 2,2 C 1,7 C 89 % 1021,1 hPa 0,0 l/m 0 min 0 min 0 W/m 12,9 km/h (3 Bft) 97,87 %
12.03.2019 03:30 2,4 C 2,2 C 1,7 C 88 % 1021,3 hPa 0,0 l/m 0 min 0 min 0 W/m 9,7 km/h (2 Bft) 97,87 %
12.03.2019 03:32 2,4 C 2,2 C 1,7 C 88 % 1021,2 hPa 0,0 l/m 0 min 0 min 0 W/m 6,4 km/h (2 Bft) 97,87 %
12.03.2019 03:34 2,4 C 2,2 C 1,7 C 88 % 1021,2 hPa 0,0 l/m 0 min 0 min 0 W/m 16,1 km/h (3 Bft) 97,87 %
12.03.2019 03:36 2,4 C 2,2 C 1,7 C 88 % 1021,2 hPa 0,0 l/m 0 min 0 min 0 W/m 9,7 km/h (2 Bft) 97,83 %
12.03.2019 03:38 2,4 C 2,2 C 1,7 C 88 % 1021,1 hPa 0,0 l/m 0 min 0 min 0 W/m 9,7 km/h (2 Bft) 100,00 %
12.03.2019 03:40 2,4 C 2,2 C 1,7 C 88 % 1021,1 hPa 0,0 l/m 0 min 0 min 0 W/m 12,9 km/h (3 Bft) 100,00 %
12.03.2019 03:42 2,4 C 2,2 C 1,7 C 88 % 1021,1 hPa 0,0 l/m 0 min 0 min 0 W/m 9,7 km/h (2 Bft) 97,87 %
12.03.2019 03:44 2,4 C 2,2 C 1,7 C 88 % 1021,0 hPa 0,0 l/m 0 min 0 min 0 W/m 12,9 km/h (3 Bft) 97,87 %
12.03.2019 03:46 2,4 C 2,2 C 1,7 C 88 % 1021,1 hPa 0,0 l/m 0 min 0 min 0 W/m 12,9 km/h (3 Bft) 100,00 %
12.03.2019 03:48 2,4 C 2,2 C 1,7 C 88 % 1021,1 hPa 0,0 l/m 0 min 0 min 0 W/m 9,7 km/h (2 Bft) 100,00 %
12.03.2019 03:50 2,4 C 2,2 C 1,7 C 88 % 1021,1 hPa 0,0 l/m 0 min 0 min 0 W/m 12,9 km/h (3 Bft) 100,00 %
12.03.2019 03:52 2,4 C 2,2 C 1,7 C 88 % 1021,0 hPa 0,0 l/m 0 min 0 min 0 W/m 9,7 km/h (2 Bft) 97,87 %
12.03.2019 03:54 2,4 C 2,2 C 1,7 C 87 % 1021,1 hPa 0,0 l/m 0 min 0 min 0 W/m 9,7 km/h (2 Bft) 100,00 %
12.03.2019 03:56 2,4 C 2,2 C 1,7 C 87 % 1021,0 hPa 0,0 l/m 0 min 0 min 0 W/m 9,7 km/h (2 Bft) 100,00 %
12.03.2019 03:58 2,4 C 2,2 C 1,7 C 87 % 1021,0 hPa 0,0 l/m 0 min 0 min 0 W/m 6,4 km/h (2 Bft) 100,00 %
12.03.2019 04:00 2,4 C 2,2 C 1,1 C 87 % 1021,0 hPa 0,0 l/m 0 min 0 min 0 W/m 9,7 km/h (2 Bft) 100,00 %
12.03.2019 04:05 2,4 C 1,7 C 1,1 C 87 % 1021,0 hPa 0,0 l/m 0 min 0 min 0 W/m 9,7 km/h (2 Bft) 95,74 %
12.03.2019 04:06 2,4 C 1,7 C 1,1 C 87 % 1021,1 hPa 0,0 l/m 0 min 0 min 0 W/m 9,7 km/h (2 Bft) 100,00 %
12.03.2019 04:08 2,4 C 1,7 C 1,1 C 87 % 1021,0 hPa 0,0 l/m 0 min 0 min 0 W/m 16,1 km/h (3 Bft) 100,00 %
12.03.2019 04:10 2,4 C 1,7 C 1,1 C 87 % 1020,9 hPa 0,0 l/m 0 min 0 min 0 W/m 12,9 km/h (3 Bft) 100,00 %
12.03.2019 04:12 2,3 C 1,7 C 1,1 C 87 % 1020,8 hPa 0,0 l/m 0 min 0 min 0 W/m 16,1 km/h (3 Bft) 97,87 %
12.03.2019 04:14 2,3 C 1,7 C 1,1 C 87 % 1020,8 hPa 0,0 l/m 0 min 0 min 0 W/m 12,9 km/h (3 Bft) 100,00 %
12.03.2019 04:16 2,3 C 1,7 C 1,1 C 87 % 1020,8 hPa 0,0 l/m 0 min 0 min 0 W/m 9,7 km/h (2 Bft) 100,00 %
12.03.2019 04:18 2,3 C 1,7 C 1,1 C 87 % 1020,8 hPa 0,0 l/m 0 min 0 min 0 W/m 9,7 km/h (2 Bft) 100,00 %
12.03.2019 04:20 2,3 C 1,7 C 1,1 C 87 % 1020,9 hPa 0,0 l/m 0 min 0 min 0 W/m 12,9 km/h (3 Bft) 97,87 %
12.03.2019 04:22 2,3 C 1,7 C 1,1 C 87 % 1020,8 hPa 0,0 l/m 0 min 0 min 0 W/m 9,7 km/h (2 Bft) 97,87 %
12.03.2019 04:24 2,3 C 1,7 C 1,1 C 87 % 1020,8 hPa 0,0 l/m 0 min 0 min 0 W/m 12,9 km/h (3 Bft) 97,92 %
12.03.2019 04:26 2,3 C 1,7 C 1,1 C 87 % 1020,7 hPa 0,0 l/m 0 min 0 min 0 W/m 16,1 km/h (3 Bft) 95,74 %
12.03.2019 04:28 2,3 C 2,2 C 1,1 C 87 % 1020,7 hPa 0,0 l/m 0 min 0 min 0 W/m 16,1 km/h (3 Bft) 97,83 %
12.03.2019 04:30 2,3 C 1,7 C 1,1 C 87 % 1020,7 hPa 0,0 l/m 0 min 0 min 0 W/m 12,9 km/h (3 Bft) 97,87 %
12.03.2019 04:32 2,3 C 2,2 C 1,1 C 87 % 1020,7 hPa 0,0 l/m 0 min 0 min 0 W/m 12,9 km/h (3 Bft) 97,87 %
12.03.2019 04:34 2,3 C 1,7 C 1,1 C 87 % 1020,7 hPa 0,0 l/m 0 min 0 min 0 W/m 9,7 km/h (2 Bft) 95,74 %
12.03.2019 04:36 2,3 C 1,7 C 1,1 C 87 % 1020,6 hPa 0,0 l/m 0 min 0 min 0 W/m 12,9 km/h (3 Bft) 96,55 %
12.03.2019 04:38 2,3 C 1,7 C 1,1 C 87 % 1020,6 hPa 0,0 l/m 0 min 0 min 0 W/m 9,7 km/h (2 Bft) 97,22 %
12.03.2019 04:40 2,3 C 1,7 C 1,1 C 87 % 1020,7 hPa 0,0 l/m 0 min 0 min 0 W/m 12,9 km/h (3 Bft) 97,83 %
12.03.2019 04:42 2,3 C 1,7 C 1,1 C 87 % 1020,6 hPa 0,0 l/m 0 min 0 min 0 W/m 12,9 km/h (3 Bft) 97,87 %
12.03.2019 04:44 2,3 C 1,7 C 1,1 C 87 % 1020,6 hPa 0,0 l/m 0 min 0 min 0 W/m 12,9 km/h (3 Bft) 95,74 %
12.03.2019 04:46 2,3 C 1,7 C 1,1 C 87 % 1020,5 hPa 0,0 l/m 0 min 0 min 0 W/m 19,3 km/h (3 Bft) 93,62 %
12.03.2019 04:48 2,3 C 1,7 C 1,1 C 87 % 1020,6 hPa 0,0 l/m 0 min 0 min 0 W/m 9,7 km/h (2 Bft) 95,74 %
12.03.2019 04:50 2,3 C 1,7 C 1,1 C 87 % 1020,5 hPa 0,0 l/m 0 min 0 min 0 W/m 9,7 km/h (2 Bft) 97,87 %
12.03.2019 04:52 2,3 C 1,7 C 1,1 C 87 % 1020,5 hPa 0,0 l/m 0 min 0 min 0 W/m 12,9 km/h (3 Bft) 95,65 %
12.03.2019 04:54 2,3 C 1,7 C 1,1 C 87 % 1020,5 hPa 0,0 l/m 0 min 0 min 0 W/m 12,9 km/h (3 Bft) 95,74 %
12.03.2019 04:56 2,3 C 1,7 C 1,1 C 87 % 1020,5 hPa 0,0 l/m 0 min 0 min 0 W/m 16,1 km/h (3 Bft) 93,62 %
12.03.2019 04:58 2,3 C 1,7 C 1,1 C 87 % 1020,5 hPa 0,0 l/m 0 min 0 min 0 W/m 9,7 km/h (2 Bft) 97,87 %
12.03.2019 05:00 2,3 C 1,7 C 1,1 C 87 % 1020,5 hPa 0,0 l/m 0 min 0 min 0 W/m 12,9 km/h (3 Bft) 95,74 %
12.03.2019 05:02 2,3 C 1,7 C 1,1 C 87 % 1020,5 hPa 0,0 l/m 0 min 0 min 0 W/m 9,7 km/h (2 Bft) 95,74 %
12.03.2019 05:04 2,3 C 1,7 C 1,1 C 88 % 1020,5 hPa 0,0 l/m 0 min 0 min 0 W/m 16,1 km/h (3 Bft) 95,65 %
12.03.2019 05:05 2,3 C 1,7 C 1,1 C 88 % 1020,4 hPa 0,0 l/m 0 min 0 min 0 W/m 16,1 km/h (3 Bft) 98,25 %
12.03.2019 05:10 2,3 C 1,7 C 1,1 C 88 % 1020,3 hPa 0,0 l/m 0 min 0 min 0 W/m 12,9 km/h (3 Bft) 100,00 %
12.03.2019 05:12 2,3 C 1,7 C 1,1 C 88 % 1020,3 hPa 0,0 l/m 0 min 0 min 0 W/m 9,7 km/h (2 Bft) 100,00 %
12.03.2019 05:17 2,3 C 2,2 C 1,1 C 88 % 1020,1 hPa 0,0 l/m 0 min 0 min 0 W/m 12,9 km/h (3 Bft) 100,00 %
12.03.2019 05:18 2,4 C 2,2 C 1,1 C 88 % 1020,1 hPa 0,0 l/m 0 min 0 min 0 W/m 9,7 km/h (2 Bft) 100,00 %
12.03.2019 05:20 2,4 C 2,2 C 1,1 C 88 % 1020,1 hPa 0,0 l/m 0 min 0 min 0 W/m 12,9 km/h (3 Bft) 100,00 %
12.03.2019 05:22 2,4 C 2,2 C 1,1 C 88 % 1020,1 hPa 0,0 l/m 0 min 0 min 0 W/m 12,9 km/h (3 Bft) 97,87 %
12.03.2019 05:24 2,4 C 2,2 C 1,1 C 88 % 1020,1 hPa 0,0 l/m 0 min 0 min 0 W/m 9,7 km/h (2 Bft) 97,92 %
12.03.2019 05:26 2,4 C 2,2 C 1,1 C 88 % 1020,0 hPa 0,0 l/m 0 min 0 min 0 W/m 12,9 km/h (3 Bft) 97,87 %
12.03.2019 05:28 2,4 C 2,2 C 1,1 C 88 % 1020,0 hPa 0,0 l/m 0 min 0 min 0 W/m 12,9 km/h (3 Bft) 97,87 %
12.03.2019 05:30 2,4 C 2,2 C 1,7 C 88 % 1019,9 hPa 0,0 l/m 0 min 0 min 0 W/m 6,4 km/h (2 Bft) 97,87 %
12.03.2019 05:32 2,4 C 2,2 C 1,7 C 88 % 1020,0 hPa 0,0 l/m 0 min 0 min 0 W/m 9,7 km/h (2 Bft) 97,87 %
12.03.2019 05:34 2,4 C 2,2 C 1,7 C 89 % 1020,0 hPa 0,0 l/m 0 min 0 min 0 W/m 16,1 km/h (3 Bft) 97,62 %
12.03.2019 05:36 2,4 C 2,2 C 1,7 C 89 % 1019,9 hPa 0,0 l/m 0 min 0 min 0 W/m 9,7 km/h (2 Bft) 98,33 %
12.03.2019 05:38 2,4 C 2,2 C 1,7 C 89 % 1019,9 hPa 0,0 l/m 0 min 0 min 0 W/m 12,9 km/h (3 Bft) 97,30 %
12.03.2019 05:40 2,4 C 2,2 C 1,7 C 89 % 1019,9 hPa 0,0 l/m 0 min 0 min 0 W/m 9,7 km/h (2 Bft) 97,87 %
12.03.2019 05:42 2,4 C 2,2 C 1,7 C 89 % 1019,9 hPa 0,0 l/m 0 min 0 min 0 W/m 16,1 km/h (3 Bft) 97,96 %
12.03.2019 05:44 2,5 C 2,2 C 1,7 C 89 % 1019,8 hPa 0,0 l/m 0 min 0 min 0 W/m 12,9 km/h (3 Bft) 100,00 %
12.03.2019 05:46 2,5 C 2,2 C 1,7 C 89 % 1019,8 hPa 0,0 l/m 0 min 0 min 0 W/m 9,7 km/h (2 Bft) 100,00 %
12.03.2019 05:48 2,5 C 2,2 C 1,7 C 89 % 1019,7 hPa 0,0 l/m 0 min 0 min 0 W/m 12,9 km/h (3 Bft) 97,87 %
12.03.2019 05:50 2,5 C 2,2 C 1,7 C 89 % 1019,7 hPa 0,0 l/m 0 min 0 min 0 W/m 16,1 km/h (3 Bft) 100,00 %
12.03.2019 05:52 2,6 C 2,2 C 1,7 C 89 % 1019,6 hPa 0,0 l/m 0 min 0 min 0 W/m 12,9 km/h (3 Bft) 100,00 %
12.03.2019 05:54 2,6 C 2,2 C 1,7 C 89 % 1019,5 hPa 0,0 l/m 0 min 0 min 0 W/m 9,7 km/h (2 Bft) 100,00 %
12.03.2019 05:56 2,6 C 2,2 C 1,7 C 89 % 1019,5 hPa 0,0 l/m 0 min 0 min 0 W/m 12,9 km/h (3 Bft) 100,00 %
12.03.2019 05:58 2,6 C 2,2 C 1,7 C 89 % 1019,5 hPa 0,0 l/m 0 min 0 min 0 W/m 9,7 km/h (2 Bft) 100,00 %
12.03.2019 06:00 2,6 C 2,2 C 1,7 C 89 % 1019,6 hPa 0,0 l/m 0 min 0 min 0 W/m 19,3 km/h (3 Bft) 100,00 %
12.03.2019 06:02 2,6 C 2,2 C 1,7 C 90 % 1019,5 hPa 0,0 l/m 0 min 0 min 0 W/m 9,7 km/h (2 Bft) 97,56 %
12.03.2019 06:04 2,7 C 2,2 C 1,7 C 90 % 1019,5 hPa 0,0 l/m 0 min 0 min 0 W/m 12,9 km/h (3 Bft) 97,87 %
12.03.2019 06:08 2,7 C 2,2 C 1,7 C 90 % 1019,4 hPa 0,0 l/m 0 min 0 min 0 W/m 12,9 km/h (3 Bft) 100,00 %
12.03.2019 06:10 2,7 C 2,8 C 1,7 C 90 % 1019,4 hPa 0,0 l/m 0 min 0 min 0 W/m 16,1 km/h (3 Bft) 100,00 %
12.03.2019 06:12 2,7 C 2,8 C 1,7 C 90 % 1019,4 hPa 0,0 l/m 0 min 0 min 0 W/m 16,1 km/h (3 Bft) 100,00 %
12.03.2019 06:14 2,8 C 2,8 C 1,7 C 90 % 1019,3 hPa 0,0 l/m 0 min 0 min 0 W/m 9,7 km/h (2 Bft) 97,87 %
12.03.2019 06:16 2,8 C 2,8 C 2,2 C 90 % 1019,3 hPa 0,0 l/m 0 min 0 min 0 W/m 12,9 km/h (3 Bft) 97,87 %
12.03.2019 06:18 2,8 C 2,8 C 2,2 C 90 % 1019,2 hPa 0,0 l/m 0 min 0 min 0 W/m 9,7 km/h (2 Bft) 97,83 %
12.03.2019 06:20 2,8 C 2,8 C 2,2 C 90 % 1019,2 hPa 0,0 l/m 0 min 0 min 0 W/m 12,9 km/h (3 Bft) 97,87 %
12.03.2019 06:22 2,9 C 2,8 C 2,2 C 90 % 1019,3 hPa 0,0 l/m 0 min 0 min 0 W/m 12,9 km/h (3 Bft) 97,87 %
12.03.2019 06:24 2,9 C 2,8 C 2,2 C 90 % 1019,3 hPa 0,0 l/m 0 min 0 min 0 W/m 19,3 km/h (3 Bft) 97,62 %
12.03.2019 06:26 2,9 C 2,8 C 2,2 C 90 % 1019,2 hPa 0,0 l/m 0 min 0 min 0 W/m 9,7 km/h (2 Bft) 97,87 %
12.03.2019 06:28 2,9 C 2,8 C 2,2 C 90 % 1019,2 hPa 0,0 l/m 0 min 0 min 0 W/m 19,3 km/h (3 Bft) 97,96 %
12.03.2019 06:30 2,9 C 2,8 C 2,2 C 90 % 1019,1 hPa 0,0 l/m 0 min 0 min 0 W/m 12,9 km/h (3 Bft) 97,87 %
12.03.2019 06:32 3,0 C 2,8 C 2,2 C 90 % 1019,1 hPa 0,0 l/m 0 min 0 min 0 W/m 12,9 km/h (3 Bft) 95,92 %
12.03.2019 06:34 3,0 C 2,8 C 2,2 C 90 % 1019,1 hPa 0,0 l/m 0 min 0 min 0 W/m 16,1 km/h (3 Bft) 97,87 %
12.03.2019 06:36 3,1 C 2,8 C 2,2 C 90 % 1019,0 hPa 0,0 l/m 0 min 0 min 0 W/m 16,1 km/h (3 Bft) 93,62 %
12.03.2019 06:38 3,1 C 2,8 C 2,2 C 90 % 1019,0 hPa 0,0 l/m 0 min 0 min 0 W/m 16,1 km/h (3 Bft) 90,57 %
12.03.2019 06:40 3,1 C 2,8 C 2,2 C 91 % 1019,0 hPa 0,0 l/m 0 min 0 min 0 W/m 12,9 km/h (3 Bft) 97,87 %
12.03.2019 06:42 3,1 C 2,8 C 2,2 C 90 % 1019,0 hPa 0,0 l/m 0 min 0 min 0 W/m 12,9 km/h (3 Bft) 97,87 %
12.03.2019 06:44 3,2 C 2,8 C 2,2 C 91 % 1018,9 hPa 0,0 l/m 0 min 0 min 0 W/m 16,1 km/h (3 Bft) 97,62 %
12.03.2019 06:46 3,2 C 2,8 C 2,2 C 91 % 1018,9 hPa 0,0 l/m 0 min 0 min 0 W/m 9,7 km/h (2 Bft) 95,74 %
12.03.2019 06:48 3,2 C 2,8 C 2,2 C 91 % 1018,9 hPa 0,0 l/m 0 min 0 min 0 W/m 16,1 km/h (3 Bft) 97,87 %
12.03.2019 06:50 3,2 C 2,8 C 2,2 C 91 % 1018,9 hPa 0,0 l/m 0 min 0 min 0 W/m 12,9 km/h (3 Bft) 89,36 %
12.03.2019 06:52 3,2 C 2,8 C 2,2 C 91 % 1018,9 hPa 0,0 l/m 0 min 0 min 0 W/m 12,9 km/h (3 Bft) 95,74 %
12.03.2019 06:54 3,2 C 2,8 C 2,2 C 91 % 1018,9 hPa 0,0 l/m 0 min 0 min 0 W/m 12,9 km/h (3 Bft) 97,87 %
12.03.2019 06:56 3,3 C 3,3 C 2,2 C 91 % 1018,9 hPa 0,0 l/m 0 min 0 min 4 W/m 12,9 km/h (3 Bft) 97,83 %
12.03.2019 06:58 3,3 C 3,3 C 2,2 C 91 % 1018,8 hPa 0,0 l/m 0 min 0 min 1 W/m 16,1 km/h (3 Bft) 95,74 %
12.03.2019 07:00 3,3 C 3,3 C 2,2 C 91 % 1018,8 hPa 0,0 l/m 0 min 0 min 5 W/m 12,9 km/h (3 Bft) 95,74 %
12.03.2019 07:02 3,3 C 3,3 C 2,2 C 91 % 1018,8 hPa 0,0 l/m 0 min 0 min 5 W/m 16,1 km/h (3 Bft) 93,62 %
12.03.2019 07:04 3,3 C 3,3 C 2,2 C 91 % 1018,8 hPa 0,0 l/m 0 min 0 min 5 W/m 12,9 km/h (3 Bft) 95,74 %
12.03.2019 07:06 3,4 C 3,3 C 2,8 C 91 % 1018,7 hPa 0,0 l/m 0 min 0 min 7 W/m 12,9 km/h (3 Bft) 95,74 %
12.03.2019 07:08 3,4 C 3,3 C 2,8 C 91 % 1018,7 hPa 0,0 l/m 0 min 0 min 9 W/m 16,1 km/h (3 Bft) 93,48 %
12.03.2019 07:10 3,4 C 3,3 C 2,8 C 91 % 1018,7 hPa 0,0 l/m 0 min 0 min 11 W/m 16,1 km/h (3 Bft) 95,74 %
12.03.2019 07:12 3,4 C 3,3 C 2,8 C 91 % 1018,7 hPa 0,0 l/m 0 min 0 min 13 W/m 16,1 km/h (3 Bft) 93,62 %
12.03.2019 07:14 3,5 C 3,3 C 2,8 C 91 % 1018,7 hPa 0,0 l/m 0 min 0 min 16 W/m 16,1 km/h (3 Bft) 93,62 %
12.03.2019 07:16 3,5 C 3,3 C 2,8 C 91 % 1018,6 hPa 0,0 l/m 0 min 0 min 17 W/m 16,1 km/h (3 Bft) 95,74 %
12.03.2019 07:18 3,6 C 3,3 C 2,8 C 91 % 1018,6 hPa 0,0 l/m 0 min 0 min 18 W/m 12,9 km/h (3 Bft) 95,74 %
12.03.2019 07:20 3,6 C 3,3 C 2,8 C 91 % 1018,5 hPa 0,0 l/m 0 min 0 min 19 W/m 12,9 km/h (3 Bft) 93,48 %
12.03.2019 07:22 3,6 C 3,3 C 2,8 C 91 % 1018,6 hPa 0,0 l/m 0 min 0 min 21 W/m 12,9 km/h (3 Bft) 93,62 %
12.03.2019 07:24 3,6 C 3,9 C 2,8 C 91 % 1018,6 hPa 0,0 l/m 0 min 0 min 21 W/m 12,9 km/h (3 Bft) 95,74 %
12.03.2019 07:26 3,7 C 3,9 C 2,8 C 91 % 1018,5 hPa 0,0 l/m 0 min 0 min 21 W/m 12,9 km/h (3 Bft) 95,74 %
12.03.2019 07:28 3,7 C 3,9 C 2,8 C 91 % 1018,4 hPa 0,0 l/m 0 min 0 min 22 W/m 25,7 km/h (4 Bft) 89,36 %
12.03.2019 07:30 3,7 C 3,9 C 3,3 C 91 % 1018,4 hPa 0,0 l/m 0 min 0 min 24 W/m 25,7 km/h (4 Bft) 93,62 %
12.03.2019 07:32 3,8 C 3,9 C 3,3 C 91 % 1018,4 hPa 0,0 l/m 0 min 0 min 27 W/m 19,3 km/h (3 Bft) 89,13 %
12.03.2019 07:34 3,8 C 3,9 C 3,3 C 90 % 1018,3 hPa 0,0 l/m 0 min 0 min 30 W/m 12,9 km/h (3 Bft) 93,62 %
12.03.2019 07:36 3,8 C 3,9 C 3,3 C 90 % 1018,3 hPa 0,0 l/m 0 min 0 min 32 W/m 12,9 km/h (3 Bft) 95,74 %
12.03.2019 07:38 3,8 C 3,9 C 3,3 C 90 % 1018,3 hPa 0,0 l/m 0 min 0 min 33 W/m 12,9 km/h (3 Bft) 93,62 %
12.03.2019 07:40 3,8 C 3,9 C 3,3 C 90 % 1018,3 hPa 0,0 l/m 0 min 0 min 34 W/m 16,1 km/h (3 Bft) 95,74 %
12.03.2019 07:42 3,9 C 3,9 C 3,3 C 90 % 1018,2 hPa 0,0 l/m 0 min 0 min 35 W/m 9,7 km/h (2 Bft) 93,62 %
12.03.2019 07:44 3,9 C 3,9 C 3,3 C 90 % 1018,0 hPa 0,0 l/m 0 min 0 min 35 W/m 12,9 km/h (3 Bft) 97,83 %
12.03.2019 07:46 3,9 C 3,9 C 3,3 C 90 % 1018,0 hPa 0,0 l/m 0 min 0 min 33 W/m 9,7 km/h (2 Bft) 93,62 %
12.03.2019 07:48 3,9 C 3,9 C 3,3 C 90 % 1018,1 hPa 0,0 l/m 0 min 0 min 31 W/m 12,9 km/h (3 Bft) 97,87 %
12.03.2019 07:50 3,9 C 3,9 C 3,3 C 90 % 1018,1 hPa 0,0 l/m 0 min 0 min 30 W/m 12,9 km/h (3 Bft) 97,87 %
12.03.2019 07:52 3,9 C 3,9 C 3,3 C 90 % 1018,0 hPa 0,0 l/m 0 min 0 min 32 W/m 12,9 km/h (3 Bft) 97,87 %
12.03.2019 07:54 3,9 C 3,9 C 3,3 C 90 % 1017,9 hPa 0,0 l/m 0 min 0 min 32 W/m 12,9 km/h (3 Bft) 95,65 %
12.03.2019 07:56 3,9 C 3,9 C 3,3 C 90 % 1017,9 hPa 0,0 l/m 0 min 0 min 31 W/m 22,5 km/h (4 Bft) 95,74 %
12.03.2019 07:58 3,9 C 3,9 C 3,3 C 90 % 1017,9 hPa 0,0 l/m 0 min 0 min 30 W/m 12,9 km/h (3 Bft) 97,87 %
12.03.2019 08:00 3,9 C 3,9 C 3,3 C 90 % 1017,9 hPa 0,0 l/m 0 min 0 min 31 W/m 12,9 km/h (3 Bft) 95,74 %
12.03.2019 08:02 4,0 C 3,9 C 3,3 C 90 % 1017,9 hPa 0,0 l/m 0 min 0 min 32 W/m 9,7 km/h (2 Bft) 95,74 %
12.03.2019 08:04 4,0 C 3,9 C 3,3 C 90 % 1018,0 hPa 0,0 l/m 0 min 0 min 36 W/m 12,9 km/h (3 Bft) 97,87 %
12.03.2019 08:06 4,0 C 3,9 C 3,3 C 90 % 1017,9 hPa 0,0 l/m 0 min 0 min 39 W/m 12,9 km/h (3 Bft) 97,87 %
12.03.2019 08:08 4,0 C 3,9 C 3,3 C 90 % 1017,9 hPa 0,0 l/m 0 min 0 min 43 W/m 9,7 km/h (2 Bft) 95,65 %
12.03.2019 08:10 4,1 C 3,9 C 3,3 C 90 % 1017,9 hPa 0,0 l/m 0 min 0 min 45 W/m 9,7 km/h (2 Bft) 95,74 %
12.03.2019 08:12 4,1 C 4,4 C 3,3 C 90 % 1017,9 hPa 0,0 l/m 0 min 0 min 45 W/m 9,7 km/h (2 Bft) 91,49 %
12.03.2019 08:14 4,1 C 4,4 C 3,9 C 90 % 1017,9 hPa 0,0 l/m 0 min 0 min 45 W/m 12,9 km/h (3 Bft) 87,23 %
12.03.2019 08:16 4,2 C 4,4 C 3,9 C 90 % 1017,9 hPa 0,0 l/m 0 min 0 min 50 W/m 9,7 km/h (2 Bft) 93,62 %
12.03.2019 08:18 4,2 C 4,4 C 3,9 C 90 % 1017,7 hPa 0,0 l/m 0 min 0 min 52 W/m 9,7 km/h (2 Bft) 100,00 %
12.03.2019 08:20 4,2 C 4,4 C 3,9 C 90 % 1017,6 hPa 0,0 l/m 0 min 0 min 53 W/m 12,9 km/h (3 Bft) 97,87 %
12.03.2019 08:22 4,2 C 4,4 C 3,9 C 90 % 1017,6 hPa 0,0 l/m 0 min 2 min 55 W/m 12,9 km/h (3 Bft) 100,00 %
12.03.2019 08:24 4,2 C 4,4 C 3,9 C 90 % 1017,6 hPa 0,0 l/m 0 min 0 min 56 W/m 6,4 km/h (2 Bft) 97,87 %
12.03.2019 08:26 4,3 C 4,4 C 3,9 C 90 % 1017,6 hPa 0,0 l/m 0 min 0 min 56 W/m 12,9 km/h (3 Bft) 100,00 %
12.03.2019 08:28 4,3 C 4,4 C 3,9 C 90 % 1017,5 hPa 0,0 l/m 0 min 0 min 56 W/m 22,5 km/h (4 Bft) 100,00 %
12.03.2019 08:30 4,4 C 4,4 C 3,9 C 90 % 1017,4 hPa 0,0 l/m 0 min 0 min 54 W/m 12,9 km/h (3 Bft) 100,00 %
12.03.2019 08:32 4,4 C 4,4 C 3,9 C 90 % 1017,4 hPa 0,0 l/m 0 min 0 min 53 W/m 12,9 km/h (3 Bft) 100,00 %
12.03.2019 08:34 4,4 C 4,4 C 3,9 C 90 % 1017,4 hPa 0,0 l/m 0 min 0 min 53 W/m 16,1 km/h (3 Bft) 100,00 %
12.03.2019 08:36 4,5 C 4,4 C 3,9 C 89 % 1017,2 hPa 0,0 l/m 0 min 0 min 57 W/m 19,3 km/h (3 Bft) 100,00 %
12.03.2019 08:38 4,6 C 4,4 C 3,9 C 89 % 1017,1 hPa 0,0 l/m 0 min 0 min 62 W/m 12,9 km/h (3 Bft) 100,00 %
12.03.2019 08:40 4,6 C 4,4 C 3,9 C 89 % 1017,2 hPa 0,0 l/m 0 min 0 min 64 W/m 16,1 km/h (3 Bft) 100,00 %
12.03.2019 08:42 4,6 C 4,4 C 3,9 C 89 % 1017,1 hPa 0,0 l/m 0 min 0 min 60 W/m 22,5 km/h (4 Bft) 100,00 %
12.03.2019 08:44 4,6 C 5,0 C 3,9 C 89 % 1017,1 hPa 0,0 l/m 0 min 0 min 61 W/m 22,5 km/h (4 Bft) 100,00 %
12.03.2019 08:46 4,7 C 5,0 C 4,4 C 89 % 1017,1 hPa 0,0 l/m 0 min 0 min 63 W/m 16,1 km/h (3 Bft) 100,00 %
12.03.2019 08:48 4,7 C 5,0 C 4,4 C 88 % 1017,1 hPa 0,0 l/m 0 min 0 min 65 W/m 16,1 km/h (3 Bft) 100,00 %
12.03.2019 08:50 4,7 C 5,0 C 4,4 C 88 % 1016,9 hPa 0,0 l/m 0 min 0 min 70 W/m 12,9 km/h (3 Bft) 100,00 %
12.03.2019 08:52 4,8 C 5,0 C 4,4 C 88 % 1016,9 hPa 0,0 l/m 0 min 0 min 89 W/m 19,3 km/h (3 Bft) 100,00 %
12.03.2019 08:54 4,8 C 5,0 C 4,4 C 88 % 1016,8 hPa 0,0 l/m 0 min 0 min 103 W/m 19,3 km/h (3 Bft) 100,00 %
12.03.2019 08:56 4,8 C 5,0 C 4,4 C 88 % 1016,8 hPa 0,0 l/m 0 min 0 min 105 W/m 19,3 km/h (3 Bft) 97,87 %
12.03.2019 08:58 4,9 C 5,0 C 4,4 C 88 % 1016,7 hPa 0,0 l/m 0 min 0 min 105 W/m 16,1 km/h (3 Bft) 97,87 %
12.03.2019 09:00 4,9 C 5,6 C 5,0 C 88 % 1016,6 hPa 0,0 l/m 0 min 0 min 104 W/m 22,5 km/h (4 Bft) 100,00 %
12.03.2019 09:02 5,0 C 5,6 C 5,0 C 87 % 1016,6 hPa 0,0 l/m 0 min 0 min 105 W/m 16,1 km/h (3 Bft) 97,87 %
12.03.2019 09:04 5,1 C 5,6 C 5,0 C 87 % 1016,5 hPa 0,0 l/m 0 min 0 min 108 W/m 16,1 km/h (3 Bft) 100,00 %
12.03.2019 09:06 5,1 C 5,6 C 5,0 C 87 % 1016,4 hPa 0,0 l/m 0 min 0 min 107 W/m 19,3 km/h (3 Bft) 100,00 %
12.03.2019 09:08 5,1 C 5,6 C 5,0 C 87 % 1016,4 hPa 0,0 l/m 0 min 0 min 101 W/m 16,1 km/h (3 Bft) 100,00 %
12.03.2019 09:10 5,2 C 5,6 C 5,0 C 86 % 1016,4 hPa 0,0 l/m 0 min 0 min 112 W/m 19,3 km/h (3 Bft) 100,00 %
12.03.2019 09:12 5,2 C 5,6 C 5,0 C 86 % 1016,5 hPa 0,0 l/m 0 min 0 min 120 W/m 25,7 km/h (4 Bft) 97,87 %
12.03.2019 09:14 5,3 C 5,6 C 5,0 C 86 % 1016,4 hPa 0,0 l/m 0 min 0 min 125 W/m 25,7 km/h (4 Bft) 100,00 %
12.03.2019 09:16 5,3 C 6,1 C 5,6 C 85 % 1016,4 hPa 0,0 l/m 0 min 0 min 122 W/m 25,7 km/h (4 Bft) 100,00 %
12.03.2019 09:18 5,4 C 6,1 C 5,6 C 84 % 1016,4 hPa 0,0 l/m 0 min 0 min 125 W/m 25,7 km/h (4 Bft) 100,00 %
12.03.2019 09:20 5,5 C 6,1 C 5,6 C 84 % 1016,3 hPa 0,0 l/m 0 min 0 min 127 W/m 22,5 km/h (4 Bft) 100,00 %
12.03.2019 09:22 5,6 C 6,1 C 5,6 C 84 % 1016,2 hPa 0,0 l/m 0 min 0 min 124 W/m 25,7 km/h (4 Bft) 100,00 %
12.03.2019 09:24 5,6 C 6,1 C 5,6 C 83 % 1016,2 hPa 0,0 l/m 0 min 0 min 123 W/m 29,0 km/h (5 Bft) 100,00 %
12.03.2019 09:26 5,7 C 6,1 C 5,6 C 82 % 1016,1 hPa 0,0 l/m 0 min 0 min 123 W/m 19,3 km/h (3 Bft) 97,87 %
12.03.2019 09:28 5,8 C 6,1 C 5,6 C 82 % 1015,9 hPa 0,0 l/m 0 min 0 min 123 W/m 22,5 km/h (4 Bft) 100,00 %
12.03.2019 09:30 5,8 C 6,1 C 5,6 C 81 % 1015,9 hPa 0,0 l/m 0 min 0 min 123 W/m 35,4 km/h (5 Bft) 100,00 %
12.03.2019 09:32 5,9 C 6,1 C 5,6 C 81 % 1015,8 hPa 0,0 l/m 0 min 0 min 124 W/m 22,5 km/h (4 Bft) 95,74 %
12.03.2019 09:34 6,0 C 6,7 C 6,1 C 80 % 1015,8 hPa 0,0 l/m 0 min 0 min 123 W/m 16,1 km/h (3 Bft) 93,62 %
12.03.2019 09:36 6,1 C 6,7 C 6,1 C 80 % 1015,7 hPa 0,0 l/m 0 min 0 min 123 W/m 19,3 km/h (3 Bft) 95,74 %
12.03.2019 09:38 6,1 C 6,7 C 6,1 C 80 % 1015,7 hPa 0,0 l/m 0 min 0 min 123 W/m 22,5 km/h (4 Bft) 93,62 %
12.03.2019 09:40 6,2 C 6,7 C 6,1 C 79 % 1015,7 hPa 0,0 l/m 0 min 0 min 126 W/m 25,7 km/h (4 Bft) 95,65 %
12.03.2019 09:42 6,2 C 6,7 C 6,1 C 79 % 1015,6 hPa 0,0 l/m 0 min 0 min 135 W/m 38,6 km/h (5 Bft) 95,74 %
12.03.2019 09:44 6,3 C 6,7 C 6,1 C 78 % 1015,6 hPa 0,0 l/m 0 min 0 min 150 W/m 22,5 km/h (4 Bft) 95,74 %
12.03.2019 09:46 6,3 C 6,7 C 6,1 C 78 % 1015,5 hPa 0,0 l/m 0 min 0 min 164 W/m 35,4 km/h (5 Bft) 95,74 %
12.03.2019 09:48 6,4 C 6,7 C 6,7 C 78 % 1015,5 hPa 0,0 l/m 0 min 0 min 178 W/m 22,5 km/h (4 Bft) 93,62 %
12.03.2019 09:50 6,4 C 7,2 C 6,7 C 78 % 1015,6 hPa 0,0 l/m 0 min 0 min 189 W/m 22,5 km/h (4 Bft) 95,74 %
12.03.2019 09:52 6,4 C 7,2 C 6,7 C 77 % 1015,5 hPa 0,0 l/m 0 min 0 min 191 W/m 32,2 km/h (5 Bft) 95,65 %
12.03.2019 09:54 6,6 C 7,2 C 6,7 C 77 % 1015,4 hPa 0,0 l/m 0 min 0 min 185 W/m 32,2 km/h (5 Bft) 95,74 %
12.03.2019 09:56 6,6 C 7,2 C 6,7 C 77 % 1015,4 hPa 0,0 l/m 0 min 0 min 176 W/m 29,0 km/h (5 Bft) 93,62 %
12.03.2019 09:58 6,7 C 7,2 C 6,7 C 76 % 1015,4 hPa 0,0 l/m 0 min 0 min 168 W/m 35,4 km/h (5 Bft) 95,74 %
12.03.2019 10:00 6,7 C 7,2 C 6,7 C 76 % 1015,4 hPa 0,0 l/m 0 min 0 min 162 W/m 38,6 km/h (5 Bft) 95,74 %
12.03.2019 10:02 6,8 C 7,2 C 6,7 C 76 % 1015,3 hPa 0,0 l/m 0 min 0 min 163 W/m 35,4 km/h (5 Bft) 95,74 %
12.03.2019 10:04 6,8 C 7,2 C 6,7 C 76 % 1015,3 hPa 0,0 l/m 0 min 0 min 169 W/m 29,0 km/h (5 Bft) 95,65 %
12.03.2019 10:06 6,9 C 7,2 C 6,7 C 75 % 1015,2 hPa 0,0 l/m 0 min 0 min 171 W/m 22,5 km/h (4 Bft) 93,62 %
12.03.2019 10:08 6,9 C 7,2 C 6,7 C 75 % 1015,2 hPa 0,0 l/m 0 min 0 min 172 W/m 29,0 km/h (5 Bft) 93,62 %
12.03.2019 10:10 6,9 C 7,2 C 6,7 C 75 % 1015,1 hPa 0,0 l/m 0 min 0 min 174 W/m 25,7 km/h (4 Bft) 91,49 %
12.03.2019 10:12 7,0 C 7,2 C 6,7 C 75 % 1015,1 hPa 0,0 l/m 0 min 0 min 181 W/m 45,1 km/h (6 Bft) 93,62 %
12.03.2019 10:14 7,1 C 7,2 C 7,2 C 74 % 1015,0 hPa 0,0 l/m 0 min 0 min 186 W/m 25,7 km/h (4 Bft) 97,87 %
12.03.2019 10:16 7,1 C 7,2 C 7,2 C 74 % 1015,0 hPa 0,0 l/m 0 min 0 min 183 W/m 25,7 km/h (4 Bft) 97,83 %
12.03.2019 10:18 7,1 C 7,8 C 7,2 C 74 % 1014,9 hPa 0,0 l/m 0 min 0 min 174 W/m 25,7 km/h (4 Bft) 93,62 %
12.03.2019 10:20 7,2 C 7,8 C 7,2 C 74 % 1014,9 hPa 0,0 l/m 0 min 0 min 163 W/m 22,5 km/h (4 Bft) 97,87 %
12.03.2019 10:22 7,2 C 7,2 C 7,2 C 73 % 1014,8 hPa 0,0 l/m 0 min 0 min 156 W/m 25,7 km/h (4 Bft) 95,74 %
12.03.2019 10:24 7,2 C 7,2 C 7,2 C 73 % 1014,7 hPa 0,0 l/m 0 min 0 min 144 W/m 22,5 km/h (4 Bft) 97,87 %
12.03.2019 10:26 7,3 C 7,2 C 6,7 C 73 % 1014,8 hPa 0,0 l/m 0 min 0 min 133 W/m 29,0 km/h (5 Bft) 97,83 %
12.03.2019 10:28 7,3 C 7,2 C 6,7 C 73 % 1014,6 hPa 0,0 l/m 0 min 0 min 130 W/m 19,3 km/h (3 Bft) 95,74 %
12.03.2019 10:30 7,3 C 7,2 C 6,7 C 73 % 1014,5 hPa 0,0 l/m 0 min 0 min 133 W/m 32,2 km/h (5 Bft) 95,74 %
12.03.2019 10:32 7,3 C 7,2 C 6,7 C 72 % 1014,5 hPa 0,0 l/m 0 min 0 min 140 W/m 29,0 km/h (5 Bft) 95,74 %
12.03.2019 10:34 7,3 C 7,2 C 6,7 C 72 % 1014,4 hPa 0,0 l/m 0 min 0 min 146 W/m 35,4 km/h (5 Bft) 97,87 %
12.03.2019 10:36 7,3 C 7,2 C 6,7 C 72 % 1014,4 hPa 0,0 l/m 0 min 0 min 146 W/m 32,2 km/h (5 Bft) 97,87 %
12.03.2019 10:38 7,4 C 7,2 C 7,2 C 72 % 1014,4 hPa 0,0 l/m 0 min 0 min 141 W/m 41,8 km/h (6 Bft) 97,83 %
12.03.2019 10:40 7,4 C 7,2 C 7,2 C 72 % 1014,4 hPa 0,0 l/m 0 min 0 min 140 W/m 22,5 km/h (4 Bft) 95,74 %
12.03.2019 10:42 7,4 C 7,2 C 7,2 C 72 % 1014,4 hPa 0,0 l/m 0 min 0 min 147 W/m 41,8 km/h (6 Bft) 97,87 %
12.03.2019 10:44 7,4 C 7,2 C 7,2 C 71 % 1014,2 hPa 0,0 l/m 0 min 0 min 157 W/m 38,6 km/h (5 Bft) 97,87 %
12.03.2019 10:46 7,4 C 7,2 C 7,2 C 71 % 1014,2 hPa 0,0 l/m 0 min 0 min 169 W/m 29,0 km/h (5 Bft) 97,87 %
12.03.2019 10:48 7,4 C 7,8 C 7,2 C 71 % 1014,2 hPa 0,0 l/m 0 min 0 min 178 W/m 32,2 km/h (5 Bft) 97,87 %
12.03.2019 10:50 7,4 C 7,8 C 7,2 C 71 % 1014,1 hPa 0,0 l/m 0 min 0 min 186 W/m 38,6 km/h (5 Bft) 97,83 %
12.03.2019 10:52 7,5 C 7,8 C 7,2 C 71 % 1014,0 hPa 0,0 l/m 0 min 0 min 195 W/m 25,7 km/h (4 Bft) 97,87 %
12.03.2019 10:54 7,5 C 7,8 C 7,2 C 71 % 1014,0 hPa 0,0 l/m 0 min 0 min 205 W/m 29,0 km/h (5 Bft) 95,74 %
12.03.2019 10:56 7,6 C 8,3 C 7,8 C 71 % 1013,9 hPa 0,0 l/m 0 min 0 min 216 W/m 22,5 km/h (4 Bft) 97,87 %
12.03.2019 10:58 7,6 C 7,8 C 7,8 C 71 % 1013,9 hPa 0,0 l/m 0 min 0 min 223 W/m 29,0 km/h (5 Bft) 97,87 %
12.03.2019 11:00 7,6 C 8,3 C 7,8 C 71 % 1013,9 hPa 0,0 l/m 0 min 0 min 231 W/m 22,5 km/h (4 Bft) 97,87 %
12.03.2019 11:02 7,7 C 8,3 C 7,8 C 71 % 1013,8 hPa 0,0 l/m 0 min 0 min 235 W/m 29,0 km/h (5 Bft) 97,83 %
12.03.2019 11:04 7,7 C 8,3 C 7,8 C 72 % 1013,7 hPa 0,0 l/m 0 min 0 min 246 W/m 19,3 km/h (3 Bft) 97,87 %
12.03.2019 11:06 7,7 C 8,3 C 7,8 C 72 % 1013,6 hPa 0,0 l/m 2 min 0 min 267 W/m 29,0 km/h (5 Bft) 97,87 %
12.03.2019 11:08 7,8 C 8,3 C 7,8 C 71 % 1013,6 hPa 0,0 l/m 2 min 0 min 275 W/m 32,2 km/h (5 Bft) 97,87 %
12.03.2019 11:10 7,8 C 8,9 C 7,8 C 71 % 1013,7 hPa 0,0 l/m 2 min 0 min 294 W/m 22,5 km/h (4 Bft) 97,87 %
12.03.2019 11:12 7,8 C 8,9 C 7,8 C 71 % 1013,5 hPa 0,0 l/m 2 min 0 min 292 W/m 38,6 km/h (5 Bft) 97,87 %
12.03.2019 11:14 7,8 C 9,4 C 7,8 C 71 % 1013,5 hPa 0,0 l/m 2 min 0 min 323 W/m 25,7 km/h (4 Bft) 95,65 %
12.03.2019 11:16 7,9 C 9,4 C 7,8 C 71 % 1013,4 hPa 0,0 l/m 2 min 0 min 337 W/m 41,8 km/h (6 Bft) 95,74 %
12.03.2019 11:18 7,9 C 9,4 C 8,3 C 71 % 1013,3 hPa 0,0 l/m 2 min 0 min 360 W/m 32,2 km/h (5 Bft) 97,87 %
12.03.2019 11:20 8,0 C 10,0 C 8,3 C 71 % 1013,2 hPa 0,0 l/m 2 min 0 min 368 W/m 25,7 km/h (4 Bft) 100,00 %
12.03.2019 11:22 8,1 C 10,0 C 8,3 C 71 % 1013,1 hPa 0,0 l/m 2 min 0 min 406 W/m 22,5 km/h (4 Bft) 97,87 %
12.03.2019 11:24 8,1 C 10,0 C 8,3 C 71 % 1013,1 hPa 0,0 l/m 2 min 0 min 384 W/m 25,7 km/h (4 Bft) 97,87 %
12.03.2019 11:26 8,2 C 10,0 C 8,3 C 70 % 1013,0 hPa 0,0 l/m 2 min 0 min 412 W/m 38,6 km/h (5 Bft) 100,00 %
12.03.2019 11:28 8,2 C 10,0 C 8,3 C 70 % 1012,9 hPa 0,0 l/m 2 min 0 min 401 W/m 25,7 km/h (4 Bft) 100,00 %
12.03.2019 11:30 8,3 C 10,6 C 8,9 C 70 % 1012,9 hPa 0,0 l/m 2 min 0 min 433 W/m 29,0 km/h (5 Bft) 100,00 %
12.03.2019 11:32 8,3 C 10,6 C 8,9 C 70 % 1012,9 hPa 0,0 l/m 2 min 0 min 407 W/m 29,0 km/h (5 Bft) 100,00 %
12.03.2019 11:34 8,4 C 10,6 C 8,9 C 69 % 1012,8 hPa 0,0 l/m 2 min 0 min 420 W/m 45,1 km/h (6 Bft) 100,00 %
12.03.2019 11:36 8,5 C 10,6 C 8,9 C 69 % 1012,7 hPa 0,0 l/m 2 min 0 min 415 W/m 25,7 km/h (4 Bft) 100,00 %
12.03.2019 11:38 8,6 C 10,6 C 8,9 C 69 % 1012,7 hPa 0,0 l/m 2 min 0 min 435 W/m 35,4 km/h (5 Bft) 100,00 %
12.03.2019 11:40 8,6 C 11,1 C 8,9 C 69 % 1012,7 hPa 0,0 l/m 2 min 0 min 454 W/m 32,2 km/h (5 Bft) 100,00 %
12.03.2019 11:42 8,7 C 11,1 C 8,9 C 69 % 1012,6 hPa 0,0 l/m 2 min 0 min 463 W/m 25,7 km/h (4 Bft) 100,00 %
12.03.2019 11:44 8,7 C 11,1 C 9,4 C 68 % 1012,5 hPa 0,0 l/m 2 min 0 min 459 W/m 22,5 km/h (4 Bft) 100,00 %
12.03.2019 11:46 8,8 C 10,6 C 9,4 C 68 % 1012,4 hPa 0,0 l/m 2 min 0 min 429 W/m 29,0 km/h (5 Bft) 100,00 %
12.03.2019 11:48 8,8 C 10,6 C 9,4 C 68 % 1012,4 hPa 0,0 l/m 2 min 0 min 362 W/m 25,7 km/h (4 Bft) 100,00 %
12.03.2019 11:50 8,9 C 10,6 C 9,4 C 67 % 1012,4 hPa 0,0 l/m 2 min 0 min 398 W/m 38,6 km/h (5 Bft) 100,00 %
12.03.2019 11:52 8,9 C 10,0 C 9,4 C 67 % 1012,3 hPa 0,0 l/m 2 min 0 min 365 W/m 35,4 km/h (5 Bft) 100,00 %
12.03.2019 11:54 8,9 C 9,4 C 8,9 C 67 % 1012,3 hPa 0,0 l/m 2 min 0 min 320 W/m 38,6 km/h (5 Bft) 100,00 %
12.03.2019 11:56 8,9 C 9,4 C 8,9 C 66 % 1012,2 hPa 0,0 l/m 2 min 0 min 306 W/m 25,7 km/h (4 Bft) 97,87 %
12.03.2019 11:58 8,9 C 9,4 C 8,9 C 66 % 1012,2 hPa 0,0 l/m 2 min 0 min 301 W/m 41,8 km/h (6 Bft) 97,87 %
12.03.2019 12:00 8,9 C 9,4 C 8,9 C 66 % 1012,2 hPa 0,0 l/m 2 min 0 min 294 W/m 38,6 km/h (5 Bft) 97,87 %
12.03.2019 12:02 8,9 C 9,4 C 8,9 C 66 % 1012,1 hPa 0,0 l/m 2 min 0 min 283 W/m 38,6 km/h (5 Bft) 97,87 %
12.03.2019 12:04 8,9 C 9,4 C 8,9 C 66 % 1012,1 hPa 0,0 l/m 2 min 0 min 284 W/m 25,7 km/h (4 Bft) 97,83 %
12.03.2019 12:08 8,9 C 9,4 C 8,9 C 67 % 1011,9 hPa 0,0 l/m 4 min 0 min 303 W/m 29,0 km/h (5 Bft) 97,87 %
12.03.2019 12:10 8,9 C 9,4 C 8,9 C 66 % 1012,0 hPa 0,0 l/m 2 min 0 min 286 W/m 32,2 km/h (5 Bft) 97,87 %
12.03.2019 12:12 8,9 C 9,4 C 8,9 C 66 % 1012,0 hPa 0,0 l/m 2 min 0 min 286 W/m 29,0 km/h (5 Bft) 95,74 %
12.03.2019 12:14 9,0 C 10,0 C 9,4 C 66 % 1011,9 hPa 0,0 l/m 0 min 0 min 281 W/m 29,0 km/h (5 Bft) 97,87 %
12.03.2019 12:16 9,0 C 9,4 C 8,9 C 65 % 1011,8 hPa 0,0 l/m 2 min 0 min 299 W/m 38,6 km/h (5 Bft) 97,83 %
12.03.2019 12:18 9,0 C 10,0 C 9,4 C 65 % 1011,8 hPa 0,0 l/m 2 min 0 min 301 W/m 22,5 km/h (4 Bft) 95,74 %
12.03.2019 12:20 9,1 C 9,4 C 8,9 C 64 % 1011,8 hPa 0,0 l/m 2 min 0 min 290 W/m 41,8 km/h (6 Bft) 95,74 %
12.03.2019 12:22 9,1 C 10,0 C 9,4 C 63 % 1011,7 hPa 0,0 l/m 2 min 0 min 304 W/m 35,4 km/h (5 Bft) 97,87 %
12.03.2019 12:24 9,1 C 10,0 C 9,4 C 63 % 1011,7 hPa 0,0 l/m 2 min 0 min 312 W/m 41,8 km/h (6 Bft) 97,87 %
12.03.2019 12:26 9,2 C 10,0 C 9,4 C 62 % 1011,6 hPa 0,0 l/m 2 min 0 min 323 W/m 35,4 km/h (5 Bft) 97,87 %
12.03.2019 12:28 9,2 C 10,6 C 10,0 C 62 % 1011,6 hPa 0,0 l/m 2 min 0 min 349 W/m 32,2 km/h (5 Bft) 97,83 %
12.03.2019 12:30 9,3 C 10,6 C 10,0 C 62 % 1011,5 hPa 0,0 l/m 2 min 0 min 377 W/m 32,2 km/h (5 Bft) 95,74 %
12.03.2019 12:32 9,3 C 11,1 C 10,6 C 62 % 1011,5 hPa 0,0 l/m 2 min 0 min 455 W/m 41,8 km/h (6 Bft) 95,74 %
12.03.2019 12:34 9,4 C 11,1 C 10,6 C 61 % 1011,4 hPa 0,0 l/m 2 min 0 min 453 W/m 38,6 km/h (5 Bft) 95,74 %
12.03.2019 12:36 9,5 C 11,1 C 10,6 C 61 % 1011,3 hPa 0,0 l/m 2 min 0 min 427 W/m 38,6 km/h (5 Bft) 95,74 %
12.03.2019 12:38 9,6 C 12,2 C 11,1 C 61 % 1011,4 hPa 0,0 l/m 2 min 0 min 428 W/m 61,2 km/h (7 Bft) 97,87 %
12.03.2019 12:40 9,7 C 12,2 C 11,1 C 61 % 1011,3 hPa 0,0 l/m 2 min 0 min 481 W/m 48,3 km/h (6 Bft) 97,83 %
12.03.2019 12:42 9,8 C 11,7 C 11,7 C 61 % 1011,3 hPa 0,0 l/m 2 min 0 min 485 W/m 35,4 km/h (5 Bft) 95,74 %
12.03.2019 12:44 9,8 C 12,2 C 11,7 C 61 % 1011,0 hPa 0,0 l/m 2 min 0 min 508 W/m 32,2 km/h (5 Bft) 95,74 %
12.03.2019 12:46 9,9 C 11,7 C 11,7 C 61 % 1011,1 hPa 0,0 l/m 2 min 0 min 462 W/m 32,2 km/h (5 Bft) 97,87 %
12.03.2019 12:48 10,0 C 11,7 C 11,1 C 60 % 1011,0 hPa 0,0 l/m 2 min 0 min 417 W/m 38,6 km/h (5 Bft) 97,87 %
12.03.2019 12:50 10,0 C 11,1 C 11,1 C 60 % 1010,9 hPa 0,0 l/m 2 min 0 min 369 W/m 38,6 km/h (5 Bft) 95,74 %
12.03.2019 12:52 10,1 C 11,1 C 11,1 C 59 % 1010,9 hPa 0,0 l/m 2 min 0 min 389 W/m 35,4 km/h (5 Bft) 97,83 %
12.03.2019 12:54 10,1 C 11,7 C 11,1 C 60 % 1010,9 hPa 0,0 l/m 2 min 0 min 342 W/m 29,0 km/h (5 Bft) 97,87 %
12.03.2019 12:56 10,1 C 11,1 C 10,6 C 58 % 1010,8 hPa 0,0 l/m 2 min 0 min 326 W/m 45,1 km/h (6 Bft) 97,87 %
12.03.2019 12:58 10,2 C 11,1 C 10,6 C 58 % 1010,8 hPa 0,0 l/m 2 min 0 min 353 W/m 38,6 km/h (5 Bft) 97,87 %
12.03.2019 13:00 10,2 C 11,1 C 10,6 C 57 % 1010,8 hPa 0,0 l/m 2 min 0 min 333 W/m 45,1 km/h (6 Bft) 95,74 %
12.03.2019 13:02 10,2 C 11,1 C 10,6 C 57 % 1010,7 hPa 0,0 l/m 2 min 0 min 312 W/m 41,8 km/h (6 Bft) 97,83 %
12.03.2019 13:04 10,2 C 10,6 C 10,0 C 57 % 1010,6 hPa 0,0 l/m 2 min 0 min 310 W/m 45,1 km/h (6 Bft) 97,87 %
12.03.2019 13:06 10,2 C 11,1 C 10,6 C 57 % 1010,6 hPa 0,0 l/m 2 min 0 min 313 W/m 41,8 km/h (6 Bft) 95,74 %
12.03.2019 13:08 10,2 C 10,6 C 10,0 C 56 % 1010,5 hPa 0,0 l/m 2 min 0 min 306 W/m 41,8 km/h (6 Bft) 97,87 %
12.03.2019 13:10 10,2 C 10,6 C 10,0 C 56 % 1010,5 hPa 0,0 l/m 2 min 0 min 325 W/m 38,6 km/h (5 Bft) 97,87 %
12.03.2019 13:12 10,2 C 10,6 C 10,0 C 57 % 1010,4 hPa 0,0 l/m 0 min 0 min 284 W/m 45,1 km/h (6 Bft) 95,65 %
12.03.2019 13:14 10,2 C 10,6 C 10,0 C 57 % 1010,4 hPa 0,0 l/m 0 min 0 min 263 W/m 35,4 km/h (5 Bft) 98,39 %
12.03.2019 13:16 10,2 C 10,6 C 10,0 C 57 % 1010,3 hPa 0,0 l/m 0 min 0 min 263 W/m 38,6 km/h (5 Bft) 97,83 %
12.03.2019 13:18 10,2 C 10,6 C 10,0 C 57 % 1010,3 hPa 0,0 l/m 0 min 0 min 277 W/m 38,6 km/h (5 Bft) 97,87 %
12.03.2019 13:20 10,2 C 11,1 C 10,6 C 57 % 1010,2 hPa 0,0 l/m 2 min 0 min 295 W/m 29,0 km/h (5 Bft) 97,87 %
12.03.2019 13:22 10,2 C 10,6 C 10,6 C 57 % 1010,2 hPa 0,0 l/m 2 min 0 min 309 W/m 38,6 km/h (5 Bft) 100,00 %
12.03.2019 13:24 10,2 C 11,1 C 10,6 C 57 % 1010,1 hPa 0,0 l/m 2 min 0 min 304 W/m 22,5 km/h (4 Bft) 100,00 %
12.03.2019 13:26 10,2 C 11,1 C 10,6 C 57 % 1010,1 hPa 0,0 l/m 2 min 0 min 327 W/m 41,8 km/h (6 Bft) 97,87 %
12.03.2019 13:28 10,2 C 11,1 C 10,6 C 57 % 1010,0 hPa 0,0 l/m 2 min 0 min 342 W/m 32,2 km/h (5 Bft) 100,00 %
12.03.2019 13:30 10,2 C 11,1 C 10,6 C 57 % 1009,9 hPa 0,0 l/m 2 min 0 min 377 W/m 41,8 km/h (6 Bft) 100,00 %
12.03.2019 13:32 10,2 C 11,1 C 10,6 C 56 % 1009,9 hPa 0,0 l/m 2 min 0 min 372 W/m 32,2 km/h (5 Bft) 100,00 %
12.03.2019 13:34 10,2 C 11,7 C 10,6 C 57 % 1009,8 hPa 0,0 l/m 2 min 0 min 382 W/m 32,2 km/h (5 Bft) 100,00 %
12.03.2019 13:36 10,3 C 11,7 C 11,1 C 57 % 1009,7 hPa 0,0 l/m 2 min 0 min 392 W/m 38,6 km/h (5 Bft) 97,96 %
12.03.2019 13:38 10,3 C 11,7 C 11,1 C 57 % 1009,7 hPa 0,0 l/m 2 min 0 min 374 W/m 48,3 km/h (6 Bft) 100,00 %
12.03.2019 13:40 10,3 C 11,1 C 10,6 C 56 % 1009,8 hPa 0,0 l/m 2 min 0 min 347 W/m 38,6 km/h (5 Bft) 97,87 %
12.03.2019 13:42 10,4 C 11,1 C 10,6 C 56 % 1009,6 hPa 0,0 l/m 2 min 0 min 320 W/m 29,0 km/h (5 Bft) 97,87 %
12.03.2019 13:44 10,4 C 10,6 C 10,6 C 55 % 1009,6 hPa 0,0 l/m 2 min 0 min 296 W/m 38,6 km/h (5 Bft) 100,00 %
12.03.2019 13:46 10,4 C 11,1 C 10,6 C 56 % 1009,4 hPa 0,0 l/m 2 min 0 min 304 W/m 29,0 km/h (5 Bft) 100,00 %
12.03.2019 13:48 10,4 C 11,1 C 10,6 C 56 % 1009,4 hPa 0,0 l/m 2 min 0 min 295 W/m 32,2 km/h (5 Bft) 100,00 %
12.03.2019 13:50 10,4 C 11,1 C 10,6 C 57 % 1009,2 hPa 0,0 l/m 2 min 0 min 305 W/m 45,1 km/h (6 Bft) 97,87 %
12.03.2019 13:52 10,4 C 11,1 C 10,6 C 57 % 1009,1 hPa 0,0 l/m 2 min 0 min 286 W/m 38,6 km/h (5 Bft) 95,74 %
12.03.2019 13:54 10,4 C 10,6 C 10,6 C 57 % 1009,0 hPa 0,0 l/m 2 min 0 min 279 W/m 57,9 km/h (7 Bft) 100,00 %
12.03.2019 13:56 10,4 C 10,6 C 10,0 C 56 % 1009,0 hPa 0,0 l/m 2 min 0 min 283 W/m 57,9 km/h (7 Bft) 100,00 %
12.03.2019 13:58 10,4 C 10,6 C 10,0 C 56 % 1009,0 hPa 0,0 l/m 0 min 0 min 261 W/m 41,8 km/h (6 Bft) 100,00 %
12.03.2019 14:00 10,3 C 10,6 C 10,0 C 57 % 1008,8 hPa 0,0 l/m 0 min 0 min 266 W/m 32,2 km/h (5 Bft) 97,87 %
12.03.2019 14:02 10,3 C 10,6 C 10,0 C 57 % 1008,7 hPa 0,0 l/m 2 min 0 min 276 W/m 41,8 km/h (6 Bft) 97,87 %
12.03.2019 14:04 10,3 C 10,6 C 10,0 C 57 % 1008,7 hPa 0,0 l/m 2 min 0 min 273 W/m 29,0 km/h (5 Bft) 97,87 %
12.03.2019 14:06 10,3 C 11,1 C 10,6 C 56 % 1008,5 hPa 0,0 l/m 2 min 0 min 305 W/m 38,6 km/h (5 Bft) 97,87 %
12.03.2019 14:08 10,3 C 11,1 C 10,6 C 56 % 1008,5 hPa 0,0 l/m 2 min 0 min 307 W/m 38,6 km/h (5 Bft) 95,65 %
12.03.2019 14:10 10,4 C 11,1 C 10,6 C 56 % 1008,5 hPa 0,0 l/m 2 min 0 min 287 W/m 45,1 km/h (6 Bft) 95,74 %
12.03.2019 14:12 10,4 C 11,1 C 10,6 C 56 % 1008,4 hPa 0,0 l/m 2 min 0 min 313 W/m 35,4 km/h (5 Bft) 95,74 %
12.03.2019 14:14 10,4 C 11,1 C 10,0 C 55 % 1008,3 hPa 0,0 l/m 2 min 0 min 293 W/m 32,2 km/h (5 Bft) 97,87 %
12.03.2019 14:16 10,4 C 11,1 C 10,6 C 56 % 1008,2 hPa 0,0 l/m 2 min 0 min 332 W/m 32,2 km/h (5 Bft) 93,62 %
12.03.2019 14:18 10,4 C 11,1 C 10,6 C 56 % 1008,1 hPa 0,0 l/m 2 min 0 min 315 W/m 35,4 km/h (5 Bft) 97,87 %
12.03.2019 14:20 10,4 C 11,1 C 10,6 C 57 % 1008,1 hPa 0,0 l/m 2 min 0 min 275 W/m 16,1 km/h (3 Bft) 97,83 %
12.03.2019 14:22 10,5 C 11,1 C 10,6 C 58 % 1008,1 hPa 0,0 l/m 2 min 0 min 268 W/m 32,2 km/h (5 Bft) 100,00 %
12.03.2019 14:24 10,5 C 10,6 C 10,6 C 58 % 1008,1 hPa 0,0 l/m 0 min 0 min 249 W/m 32,2 km/h (5 Bft) 97,87 %
12.03.2019 14:26 10,4 C 10,6 C 10,0 C 57 % 1008,0 hPa 0,0 l/m 0 min 0 min 248 W/m 32,2 km/h (5 Bft) 97,87 %
12.03.2019 14:28 10,4 C 10,6 C 10,0 C 58 % 1007,9 hPa 0,0 l/m 0 min 0 min 235 W/m 25,7 km/h (4 Bft) 95,74 %
12.03.2019 14:30 10,4 C 10,6 C 10,0 C 57 % 1007,8 hPa 0,0 l/m 0 min 0 min 230 W/m 35,4 km/h (5 Bft) 95,74 %
12.03.2019 14:32 10,4 C 10,6 C 10,0 C 58 % 1007,8 hPa 0,0 l/m 0 min 0 min 222 W/m 29,0 km/h (5 Bft) 93,48 %
12.03.2019 14:34 10,4 C 10,6 C 10,0 C 58 % 1007,7 hPa 0,0 l/m 0 min 0 min 214 W/m 29,0 km/h (5 Bft) 93,62 %
12.03.2019 14:36 10,3 C 10,6 C 10,0 C 58 % 1007,6 hPa 0,0 l/m 0 min 0 min 210 W/m 32,2 km/h (5 Bft) 95,74 %
12.03.2019 14:38 10,3 C 10,6 C 10,0 C 57 % 1007,6 hPa 0,0 l/m 0 min 0 min 211 W/m 32,2 km/h (5 Bft) 89,36 %
12.03.2019 14:40 10,3 C 10,0 C 10,0 C 57 % 1007,6 hPa 0,0 l/m 0 min 0 min 213 W/m 32,2 km/h (5 Bft) 95,74 %
12.03.2019 14:42 10,3 C 10,6 C 10,0 C 57 % 1007,5 hPa 0,0 l/m 0 min 0 min 209 W/m 32,2 km/h (5 Bft) 93,62 %
12.03.2019 14:44 10,2 C 10,0 C 10,0 C 57 % 1007,4 hPa 0,0 l/m 0 min 0 min 203 W/m 45,1 km/h (6 Bft) 95,65 %
12.03.2019 14:46 10,2 C 10,0 C 10,0 C 58 % 1007,2 hPa 0,0 l/m 0 min 0 min 196 W/m 32,2 km/h (5 Bft) 95,74 %
12.03.2019 14:48 10,2 C 10,0 C 10,0 C 58 % 1007,2 hPa 0,0 l/m 0 min 0 min 188 W/m 32,2 km/h (5 Bft) 95,74 %
12.03.2019 14:50 10,2 C 10,0 C 10,0 C 58 % 1007,1 hPa 0,0 l/m 0 min 0 min 183 W/m 29,0 km/h (5 Bft) 93,62 %
12.03.2019 14:52 10,2 C 10,0 C 10,0 C 58 % 1007,1 hPa 0,0 l/m 0 min 0 min 189 W/m 41,8 km/h (6 Bft) 95,74 %
12.03.2019 14:54 10,2 C 10,0 C 10,0 C 57 % 1007,0 hPa 0,0 l/m 0 min 0 min 192 W/m 29,0 km/h (5 Bft) 95,74 %
12.03.2019 14:56 10,2 C 10,0 C 10,0 C 57 % 1007,0 hPa 0,0 l/m 0 min 0 min 183 W/m 32,2 km/h (5 Bft) 97,83 %
12.03.2019 14:58 10,2 C 10,0 C 10,0 C 57 % 1006,9 hPa 0,0 l/m 0 min 0 min 172 W/m 35,4 km/h (5 Bft) 97,87 %
12.03.2019 15:00 10,2 C 10,0 C 10,0 C 58 % 1006,9 hPa 0,0 l/m 0 min 0 min 164 W/m 22,5 km/h (4 Bft) 97,87 %
12.03.2019 15:02 10,2 C 10,0 C 9,4 C 58 % 1006,9 hPa 0,0 l/m 0 min 0 min 163 W/m 38,6 km/h (5 Bft) 95,74 %
12.03.2019 15:04 10,2 C 10,0 C 10,0 C 58 % 1006,8 hPa 0,0 l/m 0 min 0 min 163 W/m 32,2 km/h (5 Bft) 97,87 %
12.03.2019 15:06 10,2 C 10,0 C 10,0 C 58 % 1006,7 hPa 0,0 l/m 0 min 0 min 158 W/m 25,7 km/h (4 Bft) 97,87 %
12.03.2019 15:08 10,2 C 10,0 C 9,4 C 58 % 1006,6 hPa 0,0 l/m 0 min 0 min 152 W/m 41,8 km/h (6 Bft) 93,48 %
12.03.2019 15:10 10,2 C 10,0 C 9,4 C 58 % 1006,6 hPa 0,0 l/m 0 min 0 min 145 W/m 32,2 km/h (5 Bft) 97,87 %
12.03.2019 15:12 10,2 C 10,0 C 9,4 C 57 % 1006,5 hPa 0,0 l/m 0 min 0 min 138 W/m 51,5 km/h (7 Bft) 100,00 %
12.03.2019 15:14 10,2 C 10,0 C 9,4 C 57 % 1006,4 hPa 0,0 l/m 0 min 0 min 135 W/m 41,8 km/h (6 Bft) 97,87 %
12.03.2019 15:16 10,1 C 10,0 C 9,4 C 57 % 1006,3 hPa 0,0 l/m 0 min 0 min 135 W/m 29,0 km/h (5 Bft) 100,00 %
12.03.2019 15:18 10,1 C 10,0 C 9,4 C 58 % 1006,2 hPa 0,0 l/m 0 min 0 min 131 W/m 22,5 km/h (4 Bft) 100,00 %
12.03.2019 15:20 10,1 C 10,0 C 9,4 C 57 % 1006,2 hPa 0,0 l/m 0 min 0 min 128 W/m 41,8 km/h (6 Bft) 100,00 %
12.03.2019 15:22 10,1 C 10,0 C 9,4 C 58 % 1006,1 hPa 0,0 l/m 0 min 0 min 124 W/m 22,5 km/h (4 Bft) 100,00 %
12.03.2019 15:24 10,1 C 10,0 C 9,4 C 58 % 1006,0 hPa 0,0 l/m 0 min 0 min 121 W/m 29,0 km/h (5 Bft) 97,87 %
12.03.2019 15:26 10,1 C 10,0 C 9,4 C 58 % 1005,9 hPa 0,0 l/m 0 min 0 min 115 W/m 32,2 km/h (5 Bft) 100,00 %
12.03.2019 15:28 10,1 C 10,0 C 9,4 C 58 % 1005,8 hPa 0,0 l/m 0 min 0 min 114 W/m 35,4 km/h (5 Bft) 100,00 %
12.03.2019 15:30 10,1 C 10,0 C 9,4 C 58 % 1005,7 hPa 0,0 l/m 0 min 0 min 118 W/m 45,1 km/h (6 Bft) 100,00 %
12.03.2019 15:32 10,1 C 10,0 C 9,4 C 58 % 1005,7 hPa 0,0 l/m 0 min 0 min 123 W/m 29,0 km/h (5 Bft) 100,00 %
12.03.2019 15:34 10,1 C 10,0 C 9,4 C 57 % 1005,7 hPa 0,0 l/m 0 min 0 min 127 W/m 32,2 km/h (5 Bft) 100,00 %
12.03.2019 15:36 10,1 C 10,0 C 9,4 C 57 % 1005,7 hPa 0,0 l/m 0 min 0 min 128 W/m 41,8 km/h (6 Bft) 100,00 %
12.03.2019 15:38 10,1 C 10,0 C 9,4 C 57 % 1005,6 hPa 0,0 l/m 0 min 0 min 130 W/m 35,4 km/h (5 Bft) 100,00 %
12.03.2019 15:40 10,1 C 10,0 C 9,4 C 58 % 1005,5 hPa 0,0 l/m 0 min 0 min 133 W/m 22,5 km/h (4 Bft) 97,87 %
12.03.2019 15:42 10,1 C 10,0 C 9,4 C 58 % 1005,5 hPa 0,0 l/m 0 min 0 min 130 W/m 25,7 km/h (4 Bft) 97,87 %
12.03.2019 15:44 10,1 C 10,0 C 9,4 C 58 % 1005,4 hPa 0,0 l/m 0 min 0 min 126 W/m 29,0 km/h (5 Bft) 97,87 %
12.03.2019 15:46 10,1 C 10,0 C 9,4 C 58 % 1005,4 hPa 0,0 l/m 0 min 0 min 123 W/m 45,1 km/h (6 Bft) 95,65 %
12.03.2019 15:48 10,1 C 10,0 C 9,4 C 58 % 1005,3 hPa 0,0 l/m 0 min 0 min 125 W/m 32,2 km/h (5 Bft) 97,87 %
12.03.2019 15:50 10,1 C 10,0 C 9,4 C 59 % 1005,2 hPa 0,0 l/m 0 min 0 min 123 W/m 22,5 km/h (4 Bft) 97,87 %
12.03.2019 15:52 10,1 C 10,0 C 9,4 C 59 % 1005,2 hPa 0,0 l/m 0 min 0 min 123 W/m 22,5 km/h (4 Bft) 97,87 %
12.03.2019 15:54 10,1 C 10,0 C 9,4 C 59 % 1005,2 hPa 0,0 l/m 0 min 0 min 123 W/m 29,0 km/h (5 Bft) 97,87 %
12.03.2019 15:56 10,1 C 10,0 C 9,4 C 59 % 1005,0 hPa 0,0 l/m 0 min 0 min 125 W/m 25,7 km/h (4 Bft) 95,74 %
12.03.2019 15:58 10,1 C 10,0 C 9,4 C 59 % 1004,9 hPa 0,0 l/m 0 min 0 min 129 W/m 32,2 km/h (5 Bft) 93,48 %
12.03.2019 16:00 10,1 C 10,0 C 9,4 C 59 % 1004,9 hPa 0,0 l/m 0 min 0 min 132 W/m 25,7 km/h (4 Bft) 97,87 %
12.03.2019 16:02 10,1 C 10,0 C 9,4 C 60 % 1004,8 hPa 0,0 l/m 0 min 0 min 134 W/m 16,1 km/h (3 Bft) 97,22 %
12.03.2019 16:04 10,1 C 10,0 C 9,4 C 60 % 1004,8 hPa 0,0 l/m 0 min 0 min 129 W/m 22,5 km/h (4 Bft) 98,00 %
12.03.2019 16:06 10,1 C 10,0 C 9,4 C 60 % 1004,7 hPa 0,0 l/m 0 min 0 min 112 W/m 29,0 km/h (5 Bft) 97,87 %
12.03.2019 16:08 10,1 C 10,0 C 9,4 C 60 % 1004,7 hPa 0,0 l/m 0 min 0 min 94 W/m 22,5 km/h (4 Bft) 95,74 %
12.03.2019 16:10 10,1 C 9,4 C 9,4 C 60 % 1004,7 hPa 0,0 l/m 0 min 0 min 88 W/m 19,3 km/h (3 Bft) 97,87 %
12.03.2019 16:12 10,1 C 9,4 C 9,4 C 60 % 1004,6 hPa 0,0 l/m 0 min 0 min 79 W/m 32,2 km/h (5 Bft) 97,83 %
12.03.2019 16:14 10,0 C 9,4 C 9,4 C 59 % 1004,5 hPa 0,0 l/m 0 min 0 min 68 W/m 35,4 km/h (5 Bft) 97,87 %
12.03.2019 16:16 10,0 C 9,4 C 8,9 C 59 % 1004,4 hPa 0,0 l/m 0 min 0 min 61 W/m 25,7 km/h (4 Bft) 95,74 %
12.03.2019 16:18 10,0 C 9,4 C 8,9 C 59 % 1004,4 hPa 0,0 l/m 0 min 0 min 58 W/m 32,2 km/h (5 Bft) 95,74 %
12.03.2019 16:20 9,9 C 9,4 C 8,9 C 59 % 1004,3 hPa 0,0 l/m 0 min 0 min 57 W/m 32,2 km/h (5 Bft) 97,87 %
12.03.2019 16:22 9,9 C 9,4 C 8,9 C 60 % 1004,2 hPa 0,0 l/m 0 min 0 min 53 W/m 32,2 km/h (5 Bft) 95,74 %
12.03.2019 16:24 9,9 C 9,4 C 8,9 C 60 % 1004,2 hPa 0,0 l/m 0 min 0 min 49 W/m 29,0 km/h (5 Bft) 97,83 %
12.03.2019 16:26 9,9 C 9,4 C 8,9 C 60 % 1004,1 hPa 0,0 l/m 0 min 0 min 44 W/m 32,2 km/h (5 Bft) 97,87 %
12.03.2019 16:28 9,9 C 9,4 C 8,9 C 60 % 1004,0 hPa 0,0 l/m 0 min 0 min 42 W/m 29,0 km/h (5 Bft) 97,87 %
12.03.2019 16:30 9,8 C 9,4 C 8,9 C 60 % 1004,0 hPa 0,0 l/m 0 min 0 min 44 W/m 29,0 km/h (5 Bft) 97,87 %
12.03.2019 16:32 9,8 C 9,4 C 8,9 C 60 % 1004,0 hPa 0,0 l/m 0 min 0 min 44 W/m 35,4 km/h (5 Bft) 97,92 %
12.03.2019 16:34 9,8 C 9,4 C 8,9 C 59 % 1003,9 hPa 0,0 l/m 0 min 0 min 46 W/m 41,8 km/h (6 Bft) 97,87 %
12.03.2019 16:36 9,8 C 9,4 C 8,9 C 60 % 1003,8 hPa 0,0 l/m 0 min 0 min 47 W/m 22,5 km/h (4 Bft) 97,83 %
12.03.2019 16:38 9,8 C 9,4 C 8,9 C 60 % 1003,7 hPa 0,0 l/m 0 min 0 min 51 W/m 25,7 km/h (4 Bft) 97,87 %
12.03.2019 16:40 9,8 C 9,4 C 8,9 C 60 % 1003,6 hPa 0,0 l/m 0 min 0 min 54 W/m 32,2 km/h (5 Bft) 97,87 %
12.03.2019 16:42 9,8 C 9,4 C 8,9 C 59 % 1003,6 hPa 0,0 l/m 0 min 0 min 54 W/m 32,2 km/h (5 Bft) 100,00 %
12.03.2019 16:44 9,8 C 9,4 C 8,9 C 60 % 1003,5 hPa 0,0 l/m 0 min 0 min 53 W/m 25,7 km/h (4 Bft) 100,00 %
12.03.2019 16:46 9,7 C 9,4 C 8,9 C 60 % 1003,5 hPa 0,0 l/m 0 min 0 min 50 W/m 35,4 km/h (5 Bft) 97,87 %
12.03.2019 16:48 9,7 C 9,4 C 8,9 C 60 % 1003,4 hPa 0,0 l/m 0 min 0 min 50 W/m 25,7 km/h (4 Bft) 97,83 %
12.03.2019 16:50 9,7 C 9,4 C 8,9 C 60 % 1003,2 hPa 0,0 l/m 0 min 0 min 53 W/m 48,3 km/h (6 Bft) 97,87 %
12.03.2019 16:52 9,7 C 9,4 C 8,9 C 59 % 1003,2 hPa 0,0 l/m 0 min 0 min 51 W/m 25,7 km/h (4 Bft) 97,87 %
12.03.2019 16:54 9,7 C 9,4 C 8,9 C 59 % 1003,0 hPa 0,0 l/m 0 min 0 min 47 W/m 32,2 km/h (5 Bft) 97,87 %
12.03.2019 16:56 9,7 C 9,4 C 8,9 C 60 % 1003,0 hPa 0,0 l/m 0 min 0 min 43 W/m 22,5 km/h (4 Bft) 97,87 %
12.03.2019 16:58 9,7 C 9,4 C 8,9 C 59 % 1002,9 hPa 0,0 l/m 0 min 0 min 36 W/m 29,0 km/h (5 Bft) 97,87 %
12.03.2019 17:00 9,7 C 9,4 C 8,9 C 59 % 1002,8 hPa 0,0 l/m 0 min 0 min 36 W/m 48,3 km/h (6 Bft) 97,83 %
12.03.2019 17:02 9,7 C 9,4 C 8,9 C 59 % 1002,8 hPa 0,0 l/m 0 min 0 min 39 W/m 32,2 km/h (5 Bft) 93,75 %
12.03.2019 17:04 9,7 C 9,4 C 8,9 C 59 % 1002,8 hPa 0,0 l/m 0 min 0 min 36 W/m 38,6 km/h (5 Bft) 95,74 %
12.03.2019 17:06 9,7 C 9,4 C 8,9 C 58 % 1002,5 hPa 0,0 l/m 0 min 0 min 31 W/m 32,2 km/h (5 Bft) 97,87 %
12.03.2019 17:08 9,7 C 9,4 C 8,9 C 58 % 1002,5 hPa 0,0 l/m 0 min 0 min 27 W/m 25,7 km/h (4 Bft) 97,87 %
12.03.2019 17:10 9,7 C 9,4 C 8,9 C 58 % 1002,4 hPa 0,0 l/m 0 min 0 min 25 W/m 32,2 km/h (5 Bft) 95,65 %
12.03.2019 17:12 9,7 C 9,4 C 8,9 C 58 % 1002,3 hPa 0,0 l/m 0 min 0 min 26 W/m 25,7 km/h (4 Bft) 95,74 %
12.03.2019 17:14 9,7 C 9,4 C 8,9 C 57 % 1002,3 hPa 0,0 l/m 0 min 0 min 31 W/m 35,4 km/h (5 Bft) 95,74 %
12.03.2019 17:16 9,7 C 9,4 C 8,9 C 57 % 1002,2 hPa 0,0 l/m 0 min 0 min 30 W/m 48,3 km/h (6 Bft) 95,74 %
12.03.2019 17:18 9,7 C 9,4 C 8,9 C 57 % 1002,3 hPa 0,0 l/m 0 min 0 min 27 W/m 32,2 km/h (5 Bft) 95,74 %
12.03.2019 17:20 9,7 C 9,4 C 8,9 C 57 % 1002,2 hPa 0,0 l/m 0 min 0 min 31 W/m 29,0 km/h (5 Bft) 95,74 %
12.03.2019 17:22 9,7 C 9,4 C 8,9 C 57 % 1002,2 hPa 0,0 l/m 0 min 0 min 28 W/m 35,4 km/h (5 Bft) 95,65 %
12.03.2019 17:24 9,7 C 9,4 C 8,9 C 57 % 1002,1 hPa 0,0 l/m 0 min 0 min 26 W/m 38,6 km/h (5 Bft) 95,74 %
12.03.2019 17:26 9,7 C 9,4 C 8,9 C 57 % 1002,0 hPa 0,0 l/m 0 min 0 min 28 W/m 41,8 km/h (6 Bft) 95,74 %
12.03.2019 17:28 9,7 C 9,4 C 8,9 C 57 % 1002,1 hPa 0,0 l/m 0 min 0 min 25 W/m 35,4 km/h (5 Bft) 93,62 %
12.03.2019 17:30 9,6 C 8,9 C 8,9 C 57 % 1002,0 hPa 0,0 l/m 0 min 0 min 25 W/m 25,7 km/h (4 Bft) 93,62 %
12.03.2019 17:32 9,7 C 8,9 C 8,9 C 57 % 1001,9 hPa 0,0 l/m 0 min 0 min 26 W/m 38,6 km/h (5 Bft) 95,24 %
12.03.2019 17:34 9,6 C 9,4 C 8,9 C 57 % 1001,8 hPa 0,0 l/m 0 min 0 min 28 W/m 32,2 km/h (5 Bft) 95,74 %
12.03.2019 17:36 9,6 C 9,4 C 8,9 C 57 % 1001,7 hPa 0,0 l/m 0 min 0 min 31 W/m 29,0 km/h (5 Bft) 95,92 %
12.03.2019 17:38 9,7 C 9,4 C 8,9 C 57 % 1001,7 hPa 0,0 l/m 0 min 0 min 29 W/m 22,5 km/h (4 Bft) 95,74 %
12.03.2019 17:40 9,6 C 8,9 C 8,9 C 57 % 1001,7 hPa 0,0 l/m 0 min 0 min 25 W/m 29,0 km/h (5 Bft) 95,65 %
12.03.2019 17:42 9,6 C 8,9 C 8,9 C 57 % 1001,7 hPa 0,0 l/m 0 min 0 min 21 W/m 29,0 km/h (5 Bft) 93,62 %
12.03.2019 17:44 9,7 C 8,9 C 8,9 C 57 % 1001,7 hPa 0,0 l/m 0 min 0 min 19 W/m 32,2 km/h (5 Bft) 95,74 %
12.03.2019 17:46 9,6 C 8,9 C 8,9 C 57 % 1001,7 hPa 0,0 l/m 0 min 0 min 19 W/m 25,7 km/h (4 Bft) 93,62 %
12.03.2019 17:48 9,6 C 8,9 C 8,3 C 57 % 1001,7 hPa 0,0 l/m 0 min 0 min 19 W/m 22,5 km/h (4 Bft) 95,74 %
12.03.2019 17:50 9,6 C 8,9 C 8,3 C 57 % 1001,7 hPa 0,0 l/m 0 min 0 min 18 W/m 19,3 km/h (3 Bft) 95,74 %
12.03.2019 17:52 9,6 C 8,9 C 8,3 C 57 % 1001,8 hPa 0,0 l/m 0 min 0 min 15 W/m 29,0 km/h (5 Bft) 95,65 %
12.03.2019 17:54 9,6 C 8,9 C 8,3 C 57 % 1001,7 hPa 0,0 l/m 0 min 0 min 12 W/m 29,0 km/h (5 Bft) 97,87 %
12.03.2019 17:56 9,6 C 8,9 C 8,3 C 57 % 1001,6 hPa 0,0 l/m 0 min 0 min 12 W/m 29,0 km/h (5 Bft) 95,74 %
12.03.2019 17:58 9,6 C 8,9 C 8,3 C 56 % 1001,5 hPa 0,0 l/m 0 min 0 min 13 W/m 41,8 km/h (6 Bft) 100,00 %
12.03.2019 18:00 9,6 C 8,9 C 8,3 C 56 % 1001,5 hPa 0,0 l/m 0 min 0 min 15 W/m 29,0 km/h (5 Bft) 95,74 %
12.03.2019 18:02 9,6 C 8,9 C 8,3 C 56 % 1001,5 hPa 0,0 l/m 0 min 0 min 16 W/m 25,7 km/h (4 Bft) 100,00 %
12.03.2019 18:04 9,6 C 8,9 C 8,3 C 56 % 1001,4 hPa 0,0 l/m 0 min 0 min 13 W/m 19,3 km/h (3 Bft) 97,83 %
12.03.2019 18:08 9,6 C 8,9 C 8,3 C 56 % 1001,3 hPa 0,0 l/m 0 min 0 min 11 W/m 32,2 km/h (5 Bft) 98,94 %
12.03.2019 18:10 9,6 C 8,9 C 8,3 C 56 % 1001,3 hPa 0,0 l/m 0 min 0 min 9 W/m 29,0 km/h (5 Bft) 100,00 %
12.03.2019 18:12 9,6 C 8,9 C 8,3 C 56 % 1001,2 hPa 0,0 l/m 0 min 0 min 11 W/m 19,3 km/h (3 Bft) 100,00 %
12.03.2019 18:14 9,6 C 8,9 C 8,3 C 56 % 1001,2 hPa 0,0 l/m 0 min 0 min 9 W/m 19,3 km/h (3 Bft) 97,87 %
12.03.2019 18:16 9,6 C 8,9 C 8,3 C 56 % 1001,1 hPa 0,0 l/m 0 min 0 min 6 W/m 25,7 km/h (4 Bft) 100,00 %
12.03.2019 18:18 9,5 C 8,9 C 8,3 C 56 % 1000,9 hPa 0,0 l/m 0 min 0 min 3 W/m 29,0 km/h (5 Bft) 100,00 %
12.03.2019 18:20 9,5 C 8,9 C 8,3 C 56 % 1000,9 hPa 0,0 l/m 0 min 0 min 0 W/m 29,0 km/h (5 Bft) 100,00 %
12.03.2019 18:22 9,5 C 8,9 C 8,3 C 56 % 1000,8 hPa 0,0 l/m 0 min 0 min 0 W/m 22,5 km/h (4 Bft) 100,00 %
12.03.2019 18:24 9,5 C 8,9 C 8,3 C 57 % 1000,8 hPa 0,0 l/m 0 min 0 min 0 W/m 16,1 km/h (3 Bft) 100,00 %
12.03.2019 18:26 9,5 C 8,9 C 8,3 C 57 % 1000,7 hPa 0,0 l/m 0 min 0 min 0 W/m 19,3 km/h (3 Bft) 97,83 %
12.03.2019 18:28 9,4 C 8,9 C 8,3 C 57 % 1000,6 hPa 0,0 l/m 0 min 0 min 0 W/m 38,6 km/h (5 Bft) 97,87 %
12.03.2019 18:30 9,4 C 8,9 C 8,3 C 57 % 1000,6 hPa 0,0 l/m 0 min 0 min 0 W/m 29,0 km/h (5 Bft) 95,74 %
12.03.2019 18:32 9,4 C 8,9 C 8,3 C 56 % 1000,4 hPa 0,0 l/m 0 min 0 min 0 W/m 32,2 km/h (5 Bft) 100,00 %
12.03.2019 18:34 9,4 C 8,9 C 8,3 C 56 % 1000,4 hPa 0,0 l/m 0 min 0 min 0 W/m 29,0 km/h (5 Bft) 97,87 %
12.03.2019 18:36 9,4 C 8,9 C 8,3 C 56 % 1000,4 hPa 0,0 l/m 0 min 0 min 0 W/m 19,3 km/h (3 Bft) 100,00 %
12.03.2019 18:38 9,4 C 8,9 C 8,3 C 57 % 1000,4 hPa 0,0 l/m 0 min 0 min 0 W/m 25,7 km/h (4 Bft) 100,00 %
12.03.2019 18:40 9,4 C 8,9 C 8,3 C 57 % 1000,3 hPa 0,0 l/m 0 min 0 min 0 W/m 25,7 km/h (4 Bft) 100,00 %
12.03.2019 18:42 9,4 C 8,9 C 8,3 C 56 % 1000,3 hPa 0,0 l/m 0 min 0 min 0 W/m 16,1 km/h (3 Bft) 100,00 %
12.03.2019 18:44 9,4 C 8,9 C 8,3 C 56 % 1000,1 hPa 0,0 l/m 0 min 0 min 0 W/m 29,0 km/h (5 Bft) 100,00 %
12.03.2019 18:46 9,4 C 8,9 C 8,3 C 56 % 1000,1 hPa 0,0 l/m 0 min 0 min 0 W/m 45,1 km/h (6 Bft) 100,00 %
12.03.2019 18:48 9,4 C 8,9 C 8,3 C 56 % 1000,1 hPa 0,0 l/m 0 min 0 min 0 W/m 32,2 km/h (5 Bft) 100,00 %
12.03.2019 18:50 9,4 C 8,9 C 8,3 C 56 % 999,9 hPa 0,0 l/m 0 min 0 min 0 W/m 32,2 km/h (5 Bft) 97,83 %
12.03.2019 18:52 9,4 C 8,9 C 8,3 C 57 % 999,9 hPa 0,0 l/m 0 min 0 min 0 W/m 22,5 km/h (4 Bft) 100,00 %
12.03.2019 18:54 9,4 C 8,9 C 8,3 C 57 % 999,9 hPa 0,0 l/m 0 min 0 min 0 W/m 22,5 km/h (4 Bft) 100,00 %
12.03.2019 18:56 9,4 C 8,9 C 8,3 C 57 % 999,9 hPa 0,0 l/m 0 min 0 min 0 W/m 16,1 km/h (3 Bft) 100,00 %
12.03.2019 18:58 9,3 C 8,9 C 8,3 C 57 % 999,7 hPa 0,0 l/m 0 min 0 min 0 W/m 25,7 km/h (4 Bft) 100,00 %
12.03.2019 19:00 9,3 C 8,9 C 8,3 C 57 % 999,8 hPa 0,0 l/m 0 min 0 min 0 W/m 25,7 km/h (4 Bft) 100,00 %
12.03.2019 19:02 9,3 C 8,9 C 8,3 C 57 % 999,6 hPa 0,0 l/m 0 min 0 min 0 W/m 22,5 km/h (4 Bft) 95,65 %
12.03.2019 19:04 9,3 C 8,9 C 8,3 C 57 % 999,6 hPa 0,0 l/m 0 min 0 min 0 W/m 29,0 km/h (5 Bft) 97,87 %
12.03.2019 19:06 9,3 C 8,9 C 8,3 C 57 % 999,4 hPa 0,0 l/m 0 min 0 min 0 W/m 29,0 km/h (5 Bft) 97,87 %
12.03.2019 19:08 9,3 C 8,9 C 8,3 C 57 % 999,4 hPa 0,0 l/m 0 min 0 min 0 W/m 29,0 km/h (5 Bft) 97,87 %
12.03.2019 19:10 9,3 C 8,9 C 8,3 C 57 % 999,3 hPa 0,0 l/m 0 min 0 min 0 W/m 22,5 km/h (4 Bft) 100,00 %
12.03.2019 19:12 9,3 C 8,9 C 8,3 C 57 % 999,3 hPa 0,0 l/m 0 min 0 min 0 W/m 25,7 km/h (4 Bft) 100,00 %
12.03.2019 19:14 9,3 C 8,9 C 8,3 C 57 % 999,3 hPa 0,0 l/m 0 min 0 min 0 W/m 19,3 km/h (3 Bft) 100,00 %
12.03.2019 19:16 9,3 C 8,9 C 8,3 C 57 % 999,3 hPa 0,0 l/m 0 min 0 min 0 W/m 19,3 km/h (3 Bft) 100,00 %
12.03.2019 19:18 9,3 C 8,9 C 8,3 C 57 % 999,1 hPa 0,0 l/m 0 min 0 min 0 W/m 22,5 km/h (4 Bft) 95,74 %
12.03.2019 19:20 9,3 C 8,9 C 8,3 C 57 % 999,1 hPa 0,0 l/m 0 min 0 min 0 W/m 22,5 km/h (4 Bft) 97,87 %
12.03.2019 19:22 9,3 C 8,9 C 8,3 C 57 % 999,1 hPa 0,0 l/m 0 min 0 min 0 W/m 25,7 km/h (4 Bft) 97,87 %
12.03.2019 19:24 9,3 C 8,9 C 8,3 C 57 % 999,0 hPa 0,0 l/m 0 min 0 min 0 W/m 19,3 km/h (3 Bft) 97,87 %
12.03.2019 19:26 9,3 C 8,9 C 8,3 C 57 % 999,0 hPa 0,0 l/m 0 min 0 min 0 W/m 25,7 km/h (4 Bft) 97,83 %
12.03.2019 19:28 9,3 C 8,9 C 8,3 C 57 % 999,0 hPa 0,0 l/m 0 min 0 min 0 W/m 22,5 km/h (4 Bft) 97,87 %
12.03.2019 19:30 9,3 C 8,9 C 8,3 C 57 % 999,0 hPa 0,0 l/m 0 min 0 min 0 W/m 25,7 km/h (4 Bft) 95,74 %
12.03.2019 19:32 9,3 C 8,9 C 8,3 C 57 % 998,9 hPa 0,0 l/m 0 min 0 min 0 W/m 22,5 km/h (4 Bft) 95,74 %
12.03.2019 19:34 9,3 C 8,9 C 8,3 C 57 % 998,8 hPa 0,0 l/m 0 min 0 min 0 W/m 22,5 km/h (4 Bft) 97,87 %
12.03.2019 19:36 9,3 C 8,9 C 8,3 C 57 % 998,7 hPa 0,0 l/m 0 min 0 min 0 W/m 25,7 km/h (4 Bft) 95,65 %
12.03.2019 19:38 9,3 C 8,9 C 8,3 C 58 % 998,6 hPa 0,0 l/m 0 min 0 min 0 W/m 22,5 km/h (4 Bft) 97,87 %
12.03.2019 19:40 9,3 C 8,9 C 8,3 C 58 % 998,6 hPa 0,0 l/m 0 min 0 min 0 W/m 25,7 km/h (4 Bft) 97,87 %
12.03.2019 19:42 9,3 C 8,9 C 8,3 C 57 % 998,5 hPa 0,0 l/m 0 min 0 min 0 W/m 29,0 km/h (5 Bft) 95,74 %
12.03.2019 19:44 9,3 C 8,9 C 8,3 C 58 % 998,5 hPa 0,0 l/m 0 min 0 min 0 W/m 35,4 km/h (5 Bft) 95,74 %
12.03.2019 19:46 9,3 C 8,9 C 8,3 C 58 % 998,5 hPa 0,0 l/m 0 min 0 min 0 W/m 22,5 km/h (4 Bft) 97,87 %
12.03.2019 19:48 9,3 C 8,9 C 8,3 C 58 % 998,5 hPa 0,0 l/m 0 min 0 min 0 W/m 25,7 km/h (4 Bft) 93,48 %
12.03.2019 19:50 9,4 C 8,9 C 8,3 C 58 % 998,5 hPa 0,0 l/m 0 min 0 min 0 W/m 25,7 km/h (4 Bft) 95,74 %
12.03.2019 19:52 9,3 C 8,9 C 8,3 C 58 % 998,4 hPa 0,0 l/m 0 min 0 min 0 W/m 38,6 km/h (5 Bft) 93,62 %
12.03.2019 19:54 9,4 C 8,9 C 8,3 C 58 % 998,4 hPa 0,0 l/m 0 min 0 min 0 W/m 22,5 km/h (4 Bft) 93,62 %
12.03.2019 19:56 9,4 C 8,9 C 8,3 C 58 % 998,4 hPa 0,0 l/m 0 min 0 min 0 W/m 29,0 km/h (5 Bft) 95,74 %
12.03.2019 19:58 9,4 C 8,9 C 8,3 C 58 % 998,5 hPa 0,0 l/m 0 min 0 min 0 W/m 32,2 km/h (5 Bft) 95,74 %
12.03.2019 20:00 9,3 C 8,9 C 8,3 C 58 % 998,6 hPa 0,0 l/m 0 min 0 min 0 W/m 45,1 km/h (6 Bft) 95,65 %
12.03.2019 20:02 9,4 C 8,9 C 8,3 C 58 % 998,6 hPa 0,0 l/m 0 min 0 min 0 W/m 29,0 km/h (5 Bft) 93,62 %
12.03.2019 20:04 9,4 C 8,9 C 8,3 C 58 % 998,6 hPa 0,0 l/m 0 min 0 min 0 W/m 25,7 km/h (4 Bft) 91,49 %
12.03.2019 20:06 9,3 C 8,3 C 7,8 C 59 % 998,6 hPa 0,0 l/m 0 min 2 min 0 W/m 25,7 km/h (4 Bft) 93,62 %
12.03.2019 20:08 9,3 C 8,3 C 7,8 C 59 % 998,6 hPa 0,0 l/m 0 min 2 min 0 W/m 25,7 km/h (4 Bft) 93,62 %
12.03.2019 20:10 9,3 C 7,8 C 7,2 C 60 % 998,5 hPa 0,0 l/m 0 min 2 min 0 W/m 22,5 km/h (4 Bft) 91,49 %
12.03.2019 20:12 9,3 C 7,2 C 6,7 C 61 % 998,4 hPa 0,0 l/m 0 min 2 min 0 W/m 41,8 km/h (6 Bft) 93,48 %
12.03.2019 20:14 9,3 C 7,2 C 6,7 C 63 % 998,5 hPa 0,0 l/m 0 min 2 min 0 W/m 19,3 km/h (3 Bft) 93,62 %
12.03.2019 20:16 9,3 C 6,7 C 6,1 C 63 % 998,5 hPa 0,0 l/m 0 min 2 min 0 W/m 32,2 km/h (5 Bft) 89,36 %
12.03.2019 20:18 9,2 C 6,7 C 6,1 C 63 % 998,5 hPa 0,0 l/m 0 min 2 min 0 W/m 19,3 km/h (3 Bft) 93,62 %
12.03.2019 20:20 9,2 C 7,2 C 6,1 C 64 % 998,4 hPa 0,0 l/m 0 min 2 min 0 W/m 32,2 km/h (5 Bft) 91,49 %
12.03.2019 20:22 9,1 C 6,7 C 6,1 C 65 % 998,6 hPa 0,0 l/m 0 min 2 min 0 W/m 22,5 km/h (4 Bft) 91,49 %
12.03.2019 20:24 9,1 C 6,7 C 6,1 C 65 % 998,5 hPa 0,0 l/m 0 min 2 min 0 W/m 22,5 km/h (4 Bft) 93,48 %
12.03.2019 20:26 9,0 C 7,2 C 6,1 C 65 % 998,4 hPa 0,0 l/m 0 min 2 min 0 W/m 25,7 km/h (4 Bft) 93,62 %
12.03.2019 20:28 9,0 C 7,2 C 6,1 C 65 % 998,5 hPa 0,0 l/m 0 min 2 min 0 W/m 22,5 km/h (4 Bft) 97,87 %
12.03.2019 20:30 8,9 C 7,8 C 6,7 C 66 % 998,6 hPa 0,0 l/m 0 min 2 min 0 W/m 29,0 km/h (5 Bft) 93,62 %
12.03.2019 20:32 8,9 C 7,2 C 6,7 C 66 % 998,4 hPa 0,0 l/m 0 min 2 min 0 W/m 25,7 km/h (4 Bft) 95,74 %
12.03.2019 20:34 8,9 C 7,2 C 6,7 C 67 % 998,5 hPa 0,0 l/m 0 min 2 min 0 W/m 25,7 km/h (4 Bft) 93,62 %
12.03.2019 20:36 8,9 C 7,2 C 6,1 C 68 % 998,5 hPa 0,0 l/m 0 min 2 min 0 W/m 22,5 km/h (4 Bft) 95,65 %
12.03.2019 20:38 8,9 C 7,2 C 6,1 C 68 % 998,3 hPa 0,0 l/m 0 min 2 min 0 W/m 25,7 km/h (4 Bft) 93,62 %
12.03.2019 20:40 8,9 C 7,2 C 6,1 C 68 % 998,3 hPa 0,0 l/m 0 min 2 min 0 W/m 25,7 km/h (4 Bft) 95,74 %
12.03.2019 20:42 8,9 C 7,2 C 6,1 C 68 % 998,3 hPa 0,0 l/m 0 min 2 min 0 W/m 22,5 km/h (4 Bft) 95,74 %
12.03.2019 20:44 8,9 C 7,2 C 6,1 C 68 % 998,2 hPa 0,0 l/m 0 min 2 min 0 W/m 29,0 km/h (5 Bft) 95,74 %
12.03.2019 20:46 8,9 C 7,2 C 6,1 C 68 % 998,2 hPa 0,0 l/m 0 min 2 min 0 W/m 29,0 km/h (5 Bft) 97,87 %
12.03.2019 20:48 8,9 C 6,7 C 6,1 C 69 % 998,3 hPa 0,0 l/m 0 min 2 min 0 W/m 22,5 km/h (4 Bft) 97,83 %
12.03.2019 20:50 8,9 C 6,7 C 6,1 C 69 % 998,2 hPa 0,0 l/m 0 min 2 min 0 W/m 25,7 km/h (4 Bft) 95,74 %
12.03.2019 20:52 8,9 C 6,7 C 6,1 C 70 % 998,1 hPa 0,0 l/m 0 min 2 min 0 W/m 25,7 km/h (4 Bft) 97,87 %
12.03.2019 20:54 8,9 C 6,1 C 6,1 C 70 % 998,1 hPa 0,0 l/m 0 min 2 min 0 W/m 25,7 km/h (4 Bft) 100,00 %
12.03.2019 20:56 8,9 C 6,1 C 5,6 C 71 % 998,1 hPa 0,2 l/m 0 min 2 min 0 W/m 25,7 km/h (4 Bft) 97,87 %
12.03.2019 20:58 8,9 C 6,1 C 5,6 C 71 % 998,1 hPa 0,0 l/m 0 min 2 min 0 W/m 29,0 km/h (5 Bft) 100,00 %
12.03.2019 21:00 8,9 C 6,1 C 5,6 C 72 % 998,0 hPa 0,0 l/m 0 min 2 min 0 W/m 25,7 km/h (4 Bft) 100,00 %
12.03.2019 21:02 8,9 C 6,1 C 5,6 C 72 % 997,9 hPa 0,0 l/m 0 min 2 min 0 W/m 19,3 km/h (3 Bft) 100,00 %
12.03.2019 21:04 8,8 C 6,1 C 5,6 C 73 % 997,9 hPa 0,0 l/m 0 min 2 min 0 W/m 45,1 km/h (6 Bft) 95,74 %
12.03.2019 21:06 8,8 C 6,1 C 6,1 C 73 % 997,8 hPa 0,0 l/m 0 min 2 min 0 W/m 22,5 km/h (4 Bft) 100,00 %
12.03.2019 21:08 8,8 C 6,1 C 6,1 C 73 % 997,8 hPa 0,0 l/m 0 min 2 min 0 W/m 29,0 km/h (5 Bft) 97,87 %
12.03.2019 21:10 8,8 C 6,7 C 6,1 C 73 % 997,7 hPa 0,0 l/m 0 min 2 min 0 W/m 25,7 km/h (4 Bft) 100,00 %
12.03.2019 21:12 8,8 C 6,7 C 6,1 C 74 % 997,8 hPa 0,0 l/m 0 min 2 min 0 W/m 25,7 km/h (4 Bft) 100,00 %
12.03.2019 21:14 8,8 C 6,7 C 6,7 C 74 % 997,7 hPa 0,0 l/m 0 min 2 min 0 W/m 12,9 km/h (3 Bft) 100,00 %
12.03.2019 21:16 8,8 C 6,7 C 6,7 C 74 % 997,7 hPa 0,0 l/m 0 min 2 min 0 W/m 22,5 km/h (4 Bft) 100,00 %
12.03.2019 21:18 8,8 C 7,2 C 6,7 C 74 % 997,8 hPa 0,0 l/m 0 min 2 min 0 W/m 29,0 km/h (5 Bft) 100,00 %
12.03.2019 21:20 8,8 C 7,2 C 7,2 C 74 % 997,8 hPa 0,0 l/m 0 min 2 min 0 W/m 29,0 km/h (5 Bft) 100,00 %
12.03.2019 21:22 8,8 C 7,8 C 7,2 C 74 % 997,8 hPa 0,0 l/m 0 min 2 min 0 W/m 25,7 km/h (4 Bft) 100,00 %
12.03.2019 21:24 8,8 C 8,3 C 7,8 C 74 % 997,8 hPa 0,0 l/m 0 min 2 min 0 W/m 35,4 km/h (5 Bft) 100,00 %
12.03.2019 21:26 8,9 C 8,3 C 7,8 C 74 % 997,8 hPa 0,0 l/m 0 min 2 min 0 W/m 35,4 km/h (5 Bft) 100,00 %
12.03.2019 21:28 8,9 C 8,3 C 7,8 C 74 % 997,8 hPa 0,0 l/m 0 min 2 min 0 W/m 29,0 km/h (5 Bft) 100,00 %
12.03.2019 21:30 8,9 C 8,3 C 7,8 C 74 % 997,8 hPa 0,0 l/m 0 min 2 min 0 W/m 29,0 km/h (5 Bft) 100,00 %
12.03.2019 21:32 9,0 C 8,3 C 7,8 C 74 % 997,8 hPa 0,0 l/m 0 min 0 min 0 W/m 41,8 km/h (6 Bft) 100,00 %
12.03.2019 21:34 9,1 C 8,3 C 7,8 C 74 % 997,8 hPa 0,0 l/m 0 min 2 min 0 W/m 29,0 km/h (5 Bft) 100,00 %
12.03.2019 21:36 9,1 C 8,3 C 7,8 C 74 % 998,0 hPa 0,0 l/m 0 min 2 min 0 W/m 32,2 km/h (5 Bft) 100,00 %
12.03.2019 21:38 9,2 C 8,3 C 7,8 C 74 % 997,9 hPa 0,0 l/m 0 min 2 min 0 W/m 25,7 km/h (4 Bft) 100,00 %
12.03.2019 21:40 9,2 C 8,3 C 7,8 C 75 % 998,0 hPa 0,0 l/m 0 min 2 min 0 W/m 41,8 km/h (6 Bft) 100,00 %
12.03.2019 21:42 9,3 C 8,3 C 7,8 C 75 % 998,0 hPa 0,0 l/m 0 min 2 min 0 W/m 35,4 km/h (5 Bft) 100,00 %
12.03.2019 21:44 9,3 C 8,3 C 7,8 C 75 % 998,0 hPa 0,0 l/m 0 min 2 min 0 W/m 32,2 km/h (5 Bft) 97,87 %
12.03.2019 21:46 9,3 C 8,3 C 7,8 C 76 % 997,9 hPa 0,0 l/m 0 min 2 min 0 W/m 35,4 km/h (5 Bft) 100,00 %
12.03.2019 21:48 9,2 C 7,8 C 7,2 C 76 % 997,9 hPa 0,0 l/m 0 min 2 min 0 W/m 32,2 km/h (5 Bft) 100,00 %
12.03.2019 21:50 9,2 C 7,8 C 6,7 C 76 % 998,0 hPa 0,0 l/m 0 min 2 min 0 W/m 19,3 km/h (3 Bft) 100,00 %
12.03.2019 21:52 9,2 C 7,2 C 6,7 C 77 % 998,0 hPa 0,0 l/m 0 min 2 min 0 W/m 45,1 km/h (6 Bft) 97,87 %
12.03.2019 21:54 9,2 C 7,2 C 6,1 C 78 % 998,2 hPa 0,0 l/m 0 min 2 min 0 W/m 35,4 km/h (5 Bft) 100,00 %
12.03.2019 21:56 9,1 C 6,1 C 5,6 C 79 % 998,8 hPa 0,4 l/m 0 min 2 min 0 W/m 35,4 km/h (5 Bft) 100,00 %
12.03.2019 21:58 8,8 C 5,0 C 4,4 C 79 % 999,2 hPa 0,0 l/m 0 min 2 min 0 W/m 45,1 km/h (6 Bft) 100,00 %
12.03.2019 22:00 8,3 C 4,4 C 4,4 C 80 % 999,3 hPa 0,0 l/m 0 min 2 min 0 W/m 25,7 km/h (4 Bft) 100,00 %
12.03.2019 22:02 7,8 C 4,4 C 3,9 C 81 % 999,5 hPa 0,0 l/m 0 min 2 min 0 W/m 35,4 km/h (5 Bft) 97,87 %
12.03.2019 22:04 7,4 C 4,4 C 3,9 C 82 % 999,6 hPa 0,0 l/m 0 min 2 min 0 W/m 32,2 km/h (5 Bft) 100,00 %
12.03.2019 22:06 7,2 C 4,4 C 3,9 C 83 % 999,8 hPa 0,2 l/m 0 min 2 min 0 W/m 45,1 km/h (6 Bft) 100,00 %
12.03.2019 22:08 6,8 C 3,9 C 3,9 C 83 % 999,6 hPa 0,0 l/m 0 min 2 min 0 W/m 35,4 km/h (5 Bft) 97,83 %
12.03.2019 22:10 6,4 C 3,9 C 3,9 C 84 % 999,7 hPa 0,0 l/m 0 min 2 min 0 W/m 29,0 km/h (5 Bft) 97,87 %
12.03.2019 22:12 6,2 C 3,9 C 3,9 C 85 % 999,9 hPa 0,0 l/m 0 min 2 min 0 W/m 35,4 km/h (5 Bft) 100,00 %
12.03.2019 22:14 6,0 C 3,9 C 3,3 C 86 % 1000,0 hPa 0,0 l/m 0 min 2 min 0 W/m 29,0 km/h (5 Bft) 100,00 %
12.03.2019 22:16 5,9 C 3,9 C 3,3 C 86 % 1000,3 hPa 0,0 l/m 0 min 2 min 0 W/m 22,5 km/h (4 Bft) 100,00 %
12.03.2019 22:18 5,8 C 3,9 C 3,3 C 87 % 1000,3 hPa 0,0 l/m 0 min 2 min 0 W/m 16,1 km/h (3 Bft) 97,87 %
12.03.2019 22:20 5,7 C 3,9 C 3,3 C 87 % 1000,4 hPa 0,0 l/m 0 min 2 min 0 W/m 25,7 km/h (4 Bft) 97,87 %
12.03.2019 22:22 5,6 C 3,9 C 3,3 C 88 % 1000,4 hPa 0,0 l/m 0 min 2 min 0 W/m 22,5 km/h (4 Bft) 100,00 %
12.03.2019 22:24 5,4 C 3,9 C 3,3 C 88 % 1000,5 hPa 0,0 l/m 0 min 2 min 0 W/m 32,2 km/h (5 Bft) 100,00 %
12.03.2019 22:26 5,4 C 3,9 C 3,3 C 88 % 1000,8 hPa 0,0 l/m 0 min 2 min 0 W/m 45,1 km/h (6 Bft) 97,87 %
12.03.2019 22:28 5,3 C 3,9 C 3,3 C 89 % 1000,8 hPa 0,0 l/m 0 min 2 min 0 W/m 35,4 km/h (5 Bft) 97,87 %
12.03.2019 22:30 5,2 C 3,3 C 3,3 C 89 % 1000,9 hPa 0,0 l/m 0 min 2 min 0 W/m 32,2 km/h (5 Bft) 93,62 %
12.03.2019 22:32 5,1 C 3,9 C 3,3 C 89 % 1000,9 hPa 0,0 l/m 0 min 2 min 0 W/m 19,3 km/h (3 Bft) 97,83 %
12.03.2019 22:34 5,1 C 3,9 C 3,3 C 89 % 1000,9 hPa 0,2 l/m 0 min 2 min 0 W/m 51,5 km/h (7 Bft) 97,87 %
12.03.2019 22:36 5,1 C 3,9 C 3,3 C 89 % 1001,1 hPa 0,0 l/m 0 min 2 min 0 W/m 22,5 km/h (4 Bft) 97,87 %
12.03.2019 22:38 5,0 C 3,3 C 3,3 C 90 % 1001,3 hPa 0,0 l/m 0 min 2 min 0 W/m 29,0 km/h (5 Bft) 97,87 %
12.03.2019 22:40 4,9 C 3,9 C 3,3 C 90 % 1001,1 hPa 0,0 l/m 0 min 2 min 0 W/m 29,0 km/h (5 Bft) 97,87 %
12.03.2019 22:42 4,9 C 3,3 C 3,3 C 90 % 1001,2 hPa 0,0 l/m 0 min 2 min 0 W/m 25,7 km/h (4 Bft) 97,87 %
12.03.2019 22:44 4,9 C 3,3 C 3,3 C 90 % 1001,2 hPa 0,0 l/m 0 min 2 min 0 W/m 22,5 km/h (4 Bft) 97,83 %
12.03.2019 22:46 4,8 C 3,3 C 3,3 C 90 % 1001,3 hPa 0,0 l/m 0 min 2 min 0 W/m 22,5 km/h (4 Bft) 97,87 %
12.03.2019 22:48 4,8 C 3,9 C 3,3 C 90 % 1001,5 hPa 0,0 l/m 0 min 2 min 0 W/m 22,5 km/h (4 Bft) 97,87 %
12.03.2019 22:50 4,8 C 3,9 C 3,3 C 90 % 1001,4 hPa 0,0 l/m 0 min 2 min 0 W/m 16,1 km/h (3 Bft) 97,87 %
12.03.2019 22:52 4,8 C 3,9 C 3,3 C 91 % 1001,5 hPa 0,0 l/m 0 min 2 min 0 W/m 19,3 km/h (3 Bft) 100,00 %
12.03.2019 22:54 4,8 C 3,9 C 3,3 C 91 % 1001,5 hPa 0,0 l/m 0 min 2 min 0 W/m 12,9 km/h (3 Bft) 97,87 %
12.03.2019 22:56 4,8 C 3,9 C 3,3 C 91 % 1001,5 hPa 0,0 l/m 0 min 2 min 0 W/m 22,5 km/h (4 Bft) 97,83 %
12.03.2019 22:58 4,8 C 3,9 C 3,3 C 91 % 1001,6 hPa 0,0 l/m 0 min 2 min 0 W/m 19,3 km/h (3 Bft) 97,87 %
12.03.2019 23:00 4,8 C 3,9 C 3,3 C 91 % 1001,6 hPa 0,0 l/m 0 min 2 min 0 W/m 22,5 km/h (4 Bft) 97,87 %
12.03.2019 23:02 4,7 C 3,9 C 3,3 C 91 % 1001,6 hPa 0,0 l/m 0 min 2 min 0 W/m 19,3 km/h (3 Bft) 91,49 %
12.03.2019 23:04 4,7 C 3,9 C 3,3 C 91 % 1001,6 hPa 0,0 l/m 0 min 2 min 0 W/m 22,5 km/h (4 Bft) 95,74 %
12.03.2019 23:06 4,7 C 3,9 C 3,3 C 91 % 1001,7 hPa 0,0 l/m 0 min 0 min 0 W/m 16,1 km/h (3 Bft) 95,74 %
12.03.2019 23:08 4,7 C 3,9 C 3,3 C 91 % 1001,6 hPa 0,0 l/m 0 min 0 min 0 W/m 22,5 km/h (4 Bft) 95,65 %
12.03.2019 23:10 4,7 C 3,9 C 3,3 C 91 % 1001,7 hPa 0,0 l/m 0 min 0 min 0 W/m 22,5 km/h (4 Bft) 93,62 %
12.03.2019 23:12 4,7 C 3,9 C 3,3 C 91 % 1001,6 hPa 0,0 l/m 0 min 0 min 0 W/m 22,5 km/h (4 Bft) 95,74 %
12.03.2019 23:14 4,7 C 3,9 C 3,3 C 91 % 1001,8 hPa 0,0 l/m 0 min 0 min 0 W/m 16,1 km/h (3 Bft) 95,74 %
12.03.2019 23:16 4,7 C 3,9 C 3,3 C 91 % 1001,8 hPa 0,0 l/m 0 min 0 min 0 W/m 16,1 km/h (3 Bft) 97,87 %
12.03.2019 23:18 4,7 C 3,9 C 3,3 C 91 % 1001,8 hPa 0,0 l/m 0 min 0 min 0 W/m 16,1 km/h (3 Bft) 97,87 %
12.03.2019 23:20 4,7 C 3,9 C 3,3 C 91 % 1001,8 hPa 0,0 l/m 0 min 0 min 0 W/m 19,3 km/h (3 Bft) 95,65 %
12.03.2019 23:22 4,7 C 3,9 C 3,3 C 91 % 1001,8 hPa 0,0 l/m 0 min 0 min 0 W/m 25,7 km/h (4 Bft) 97,87 %
12.03.2019 23:24 4,7 C 3,9 C 3,3 C 91 % 1001,9 hPa 0,0 l/m 0 min 0 min 0 W/m 12,9 km/h (3 Bft) 95,74 %
12.03.2019 23:26 4,8 C 3,9 C 3,3 C 91 % 1001,9 hPa 0,0 l/m 0 min 0 min 0 W/m 19,3 km/h (3 Bft) 95,74 %
12.03.2019 23:28 4,8 C 3,9 C 3,3 C 91 % 1001,9 hPa 0,0 l/m 0 min 0 min 0 W/m 19,3 km/h (3 Bft) 95,74 %
12.03.2019 23:30 4,8 C 3,9 C 3,3 C 91 % 1002,0 hPa 0,0 l/m 0 min 0 min 0 W/m 16,1 km/h (3 Bft) 93,48 %
12.03.2019 23:32 4,8 C 3,9 C 3,3 C 91 % 1001,9 hPa 0,0 l/m 0 min 0 min 0 W/m 9,7 km/h (2 Bft) 93,62 %
12.03.2019 23:34 4,8 C 3,9 C 3,3 C 91 % 1002,0 hPa 0,0 l/m 0 min 0 min 0 W/m 25,7 km/h (4 Bft) 95,74 %
12.03.2019 23:36 4,8 C 3,9 C 3,3 C 91 % 1002,0 hPa 0,0 l/m 0 min 0 min 0 W/m 22,5 km/h (4 Bft) 95,74 %
12.03.2019 23:38 4,8 C 3,9 C 3,3 C 91 % 1002,0 hPa 0,0 l/m 0 min 0 min 0 W/m 16,1 km/h (3 Bft) 95,74 %
12.03.2019 23:40 4,8 C 3,9 C 3,3 C 91 % 1002,0 hPa 0,0 l/m 0 min 0 min 0 W/m 16,1 km/h (3 Bft) 95,74 %
12.03.2019 23:42 4,8 C 3,9 C 3,3 C 91 % 1002,0 hPa 0,0 l/m 0 min 0 min 0 W/m 16,1 km/h (3 Bft) 95,65 %
12.03.2019 23:44 4,8 C 3,9 C 3,3 C 91 % 1002,1 hPa 0,0 l/m 0 min 0 min 0 W/m 19,3 km/h (3 Bft) 95,74 %
12.03.2019 23:46 4,8 C 3,9 C 3,3 C 91 % 1002,2 hPa 0,0 l/m 0 min 0 min 0 W/m 22,5 km/h (4 Bft) 95,74 %
12.03.2019 23:48 4,9 C 3,9 C 3,3 C 91 % 1002,2 hPa 0,0 l/m 0 min 0 min 0 W/m 12,9 km/h (3 Bft) 93,62 %
12.03.2019 23:50 4,9 C 3,9 C 3,3 C 91 % 1002,2 hPa 0,0 l/m 0 min 0 min 0 W/m 19,3 km/h (3 Bft) 93,62 %
12.03.2019 23:52 4,9 C 3,9 C 3,3 C 91 % 1002,2 hPa 0,0 l/m 0 min 0 min 0 W/m 22,5 km/h (4 Bft) 95,74 %
12.03.2019 23:54 4,9 C 3,9 C 3,3 C 91 % 1002,3 hPa 0,0 l/m 0 min 0 min 0 W/m 9,7 km/h (2 Bft) 95,65 %
12.03.2019 23:56 4,9 C 3,9 C 3,3 C 91 % 1002,3 hPa 0,0 l/m 0 min 0 min 0 W/m 12,9 km/h (3 Bft) 97,87 %
12.03.2019 23:58 4,9 C 3,9 C 3,3 C 91 % 1002,4 hPa 0,0 l/m 0 min 0 min 0 W/m 19,3 km/h (3 Bft) 97,87 %
_ Min-Zeit 04:12 00:52 00:38 13:44 21:10 - - - - 00:36 08:14
Minimum _ 2,3 C 1,1 C 0,6 C 55 % 997,7 hPa - - - - 0,0 km/h (0 Bft) 87,23 %
_ Max-Zeit 14:22 12:38 12:42 06:40 00:02 21:56 12:08 08:22 12:44 12:38 00:00
Maximum _ 10,5 C 12,2 C 11,7 C 91 % 1023,3 hPa 0,4 l/m 4 min 2 min 508 W/m 61,2 km/h
SO (7 Bft)
100,00 %
Durchschnitt _ 6,4 C 6,1 C 5,5 C 75 % 1011,2 hPa #1,0 l/m #3:04 h #3:00 h 165 W/m 22,5 km/h (4 Bft) 97,43 %
© 2019 W. Hausmann